<?xml version="1.0" encoding="UTF-8" standalone="no" ?>
<gpx xmlns="http://www.topografix.com/GPX/1/1" creator="CompeGPS" version="1.1" xmlns:xsi="http://www.w3.org/2001/XMLSchema-instance" xsi:schemaLocation="http://www.topografix.com/GPX/1/1 http://www.topografix.com/GPX/1/1/gpx.xsd http://www.garmin.com/xmlschemas/GpxExtensions/v3 http://www.garmin.com/xmlschemas/GpxExtensionsv3.xsd http://www.garmin.com/xmlschemas/TrackPointExtension/v1 http://www.garmin.com/xmlschemas/TrackPointExtensionv1.xsd" xmlns:gpxtpx="http://www.garmin.com/xmlschemas/TrackPointExtension/v1">
  <metadata>
    <link href="http://www.compegps.com">
      <text>CompeGPS TEAM, SL</text>
    </link>
    <time>2020-06-06T14:11:59Z</time>
    <bounds maxlat="42.808081" maxlon="0.339970" minlat="42.757253" minlon="0.327186"/>
  </metadata>
      <wpt lat="42.796943" lon="0.330699">
    <ele>1550.5</ele>
    <time>2020-06-06T11:03:16Z</time>
    <name>Lac de la Coume</name>
    <desc></desc>
    <sym>Waypoint</sym>
  </wpt>
  <wpt lat="42.780852" lon="0.326967">
    <ele>2144.6</ele>
    <time>2020-06-06T11:36:38Z</time>
    <name>Col de Laubere</name>
    <desc></desc>
    <sym>Waypoint</sym>
  </wpt>
  <wpt lat="42.759830" lon="0.335584">
    <ele>2355.2</ele>
    <time>2020-06-06T12:51:42Z</time>
    <name>Lacs de Consaterre</name>
    <desc></desc>
    <sym>Waypoint</sym>
  </wpt>
  <wpt lat="42.791552" lon="0.339843">
    <ele>1692.3</ele>
    <time>2020-06-06T13:37:56Z</time>
    <name>Pic de Hountas</name>
    <desc></desc>
    <sym>Waypoint</sym>
  </wpt>
<trk>
    <name>lacs_de_consaterre</name>
    <userMyTwoNav></userMyTwoNav>
    <serialNumber></serialNumber>
    <trkseg>
      <trkpt lat="42.808072" lon="0.335116">
        <ele>1246.0</ele>
        <time>2020-06-05T12:59:11Z</time>
      </trkpt>
      <trkpt lat="42.808073" lon="0.335117">
        <ele>1264.0</ele>
        <time>2020-06-05T12:59:29Z</time>
      </trkpt>
      <trkpt lat="42.808081" lon="0.335013">
        <ele>1264.8</ele>
        <time>2020-06-05T12:59:42Z</time>
      </trkpt>
      <trkpt lat="42.808031" lon="0.334923">
        <ele>1266.0</ele>
        <time>2020-06-05T12:59:50Z</time>
      </trkpt>
      <trkpt lat="42.807941" lon="0.334985">
        <ele>1267.9</ele>
        <time>2020-06-05T12:59:58Z</time>
      </trkpt>
      <trkpt lat="42.807882" lon="0.335084">
        <ele>1269.6</ele>
        <time>2020-06-05T13:00:07Z</time>
      </trkpt>
      <trkpt lat="42.807809" lon="0.335181">
        <ele>1271.5</ele>
        <time>2020-06-05T13:00:19Z</time>
      </trkpt>
      <trkpt lat="42.807745" lon="0.335285">
        <ele>1272.4</ele>
        <time>2020-06-05T13:00:26Z</time>
      </trkpt>
      <trkpt lat="42.807685" lon="0.335381">
        <ele>1273.5</ele>
        <time>2020-06-05T13:00:34Z</time>
      </trkpt>
      <trkpt lat="42.807631" lon="0.335481">
        <ele>1274.5</ele>
        <time>2020-06-05T13:00:42Z</time>
      </trkpt>
      <trkpt lat="42.807568" lon="0.335584">
        <ele>1275.5</ele>
        <time>2020-06-05T13:00:50Z</time>
      </trkpt>
      <trkpt lat="42.807507" lon="0.335686">
        <ele>1276.3</ele>
        <time>2020-06-05T13:00:58Z</time>
      </trkpt>
      <trkpt lat="42.807448" lon="0.335784">
        <ele>1276.3</ele>
        <time>2020-06-05T13:01:05Z</time>
      </trkpt>
      <trkpt lat="42.807395" lon="0.335883">
        <ele>1276.3</ele>
        <time>2020-06-05T13:01:12Z</time>
      </trkpt>
      <trkpt lat="42.807335" lon="0.335987">
        <ele>1277.1</ele>
        <time>2020-06-05T13:01:19Z</time>
      </trkpt>
      <trkpt lat="42.807281" lon="0.336090">
        <ele>1277.1</ele>
        <time>2020-06-05T13:01:26Z</time>
      </trkpt>
      <trkpt lat="42.807235" lon="0.336208">
        <ele>1278.0</ele>
        <time>2020-06-05T13:01:34Z</time>
      </trkpt>
      <trkpt lat="42.807200" lon="0.336322">
        <ele>1278.9</ele>
        <time>2020-06-05T13:01:41Z</time>
      </trkpt>
      <trkpt lat="42.807151" lon="0.336441">
        <ele>1279.9</ele>
        <time>2020-06-05T13:01:49Z</time>
      </trkpt>
      <trkpt lat="42.807088" lon="0.336550">
        <ele>1280.7</ele>
        <time>2020-06-05T13:01:57Z</time>
      </trkpt>
      <trkpt lat="42.807024" lon="0.336645">
        <ele>1280.7</ele>
        <time>2020-06-05T13:02:04Z</time>
      </trkpt>
      <trkpt lat="42.806954" lon="0.336728">
        <ele>1281.7</ele>
        <time>2020-06-05T13:02:11Z</time>
      </trkpt>
      <trkpt lat="42.806870" lon="0.336806">
        <ele>1282.6</ele>
        <time>2020-06-05T13:02:19Z</time>
      </trkpt>
      <trkpt lat="42.806776" lon="0.336845">
        <ele>1284.2</ele>
        <time>2020-06-05T13:02:27Z</time>
      </trkpt>
      <trkpt lat="42.806674" lon="0.336871">
        <ele>1285.9</ele>
        <time>2020-06-05T13:02:36Z</time>
      </trkpt>
      <trkpt lat="42.806593" lon="0.336834">
        <ele>1287.6</ele>
        <time>2020-06-05T13:02:45Z</time>
      </trkpt>
      <trkpt lat="42.806527" lon="0.336785">
        <ele>1290.3</ele>
        <time>2020-06-05T13:02:54Z</time>
      </trkpt>
      <trkpt lat="42.806451" lon="0.336711">
        <ele>1292.7</ele>
        <time>2020-06-05T13:03:04Z</time>
      </trkpt>
      <trkpt lat="42.806389" lon="0.336620">
        <ele>1295.1</ele>
        <time>2020-06-05T13:03:14Z</time>
      </trkpt>
      <trkpt lat="42.806323" lon="0.336530">
        <ele>1297.8</ele>
        <time>2020-06-05T13:03:23Z</time>
      </trkpt>
      <trkpt lat="42.806241" lon="0.336435">
        <ele>1301.3</ele>
        <time>2020-06-05T13:03:33Z</time>
      </trkpt>
      <trkpt lat="42.806156" lon="0.336410">
        <ele>1303.7</ele>
        <time>2020-06-05T13:03:41Z</time>
      </trkpt>
      <trkpt lat="42.806067" lon="0.336358">
        <ele>1306.9</ele>
        <time>2020-06-05T13:03:50Z</time>
      </trkpt>
      <trkpt lat="42.805998" lon="0.336268">
        <ele>1309.9</ele>
        <time>2020-06-05T13:04:02Z</time>
      </trkpt>
      <trkpt lat="42.805935" lon="0.336172">
        <ele>1312.4</ele>
        <time>2020-06-05T13:04:11Z</time>
      </trkpt>
      <trkpt lat="42.805860" lon="0.336074">
        <ele>1315.0</ele>
        <time>2020-06-05T13:04:20Z</time>
      </trkpt>
      <trkpt lat="42.805810" lon="0.335964">
        <ele>1317.8</ele>
        <time>2020-06-05T13:04:28Z</time>
      </trkpt>
      <trkpt lat="42.805780" lon="0.335847">
        <ele>1320.5</ele>
        <time>2020-06-05T13:04:36Z</time>
      </trkpt>
      <trkpt lat="42.805785" lon="0.335710">
        <ele>1322.3</ele>
        <time>2020-06-05T13:04:44Z</time>
      </trkpt>
      <trkpt lat="42.805776" lon="0.335570">
        <ele>1324.2</ele>
        <time>2020-06-05T13:04:53Z</time>
      </trkpt>
      <trkpt lat="42.805704" lon="0.335485">
        <ele>1326.1</ele>
        <time>2020-06-05T13:05:01Z</time>
      </trkpt>
      <trkpt lat="42.805647" lon="0.335371">
        <ele>1328.7</ele>
        <time>2020-06-05T13:05:09Z</time>
      </trkpt>
      <trkpt lat="42.805551" lon="0.335355">
        <ele>1330.6</ele>
        <time>2020-06-05T13:05:17Z</time>
      </trkpt>
      <trkpt lat="42.805445" lon="0.335311">
        <ele>1333.3</ele>
        <time>2020-06-05T13:05:25Z</time>
      </trkpt>
      <trkpt lat="42.805366" lon="0.335194">
        <ele>1335.0</ele>
        <time>2020-06-05T13:05:34Z</time>
      </trkpt>
      <trkpt lat="42.805278" lon="0.335135">
        <ele>1339.9</ele>
        <time>2020-06-05T13:05:46Z</time>
      </trkpt>
      <trkpt lat="42.805198" lon="0.335060">
        <ele>1341.7</ele>
        <time>2020-06-05T13:05:55Z</time>
      </trkpt>
      <trkpt lat="42.805145" lon="0.334950">
        <ele>1343.6</ele>
        <time>2020-06-05T13:06:03Z</time>
      </trkpt>
      <trkpt lat="42.805109" lon="0.334837">
        <ele>1344.3</ele>
        <time>2020-06-05T13:06:10Z</time>
      </trkpt>
      <trkpt lat="42.805077" lon="0.334715">
        <ele>1345.1</ele>
        <time>2020-06-05T13:06:17Z</time>
      </trkpt>
      <trkpt lat="42.805053" lon="0.334579">
        <ele>1346.0</ele>
        <time>2020-06-05T13:06:25Z</time>
      </trkpt>
      <trkpt lat="42.805027" lon="0.334456">
        <ele>1346.8</ele>
        <time>2020-06-05T13:06:32Z</time>
      </trkpt>
      <trkpt lat="42.804998" lon="0.334335">
        <ele>1347.6</ele>
        <time>2020-06-05T13:06:39Z</time>
      </trkpt>
      <trkpt lat="42.804968" lon="0.334220">
        <ele>1349.4</ele>
        <time>2020-06-05T13:06:46Z</time>
      </trkpt>
      <trkpt lat="42.804943" lon="0.334100">
        <ele>1350.2</ele>
        <time>2020-06-05T13:06:53Z</time>
      </trkpt>
      <trkpt lat="42.804907" lon="0.333984">
        <ele>1352.3</ele>
        <time>2020-06-05T13:07:00Z</time>
      </trkpt>
      <trkpt lat="42.804870" lon="0.333870">
        <ele>1353.1</ele>
        <time>2020-06-05T13:07:07Z</time>
      </trkpt>
      <trkpt lat="42.804825" lon="0.333758">
        <ele>1354.9</ele>
        <time>2020-06-05T13:07:14Z</time>
      </trkpt>
      <trkpt lat="42.804789" lon="0.333648">
        <ele>1356.5</ele>
        <time>2020-06-05T13:07:21Z</time>
      </trkpt>
      <trkpt lat="42.804751" lon="0.333527">
        <ele>1357.4</ele>
        <time>2020-06-05T13:07:29Z</time>
      </trkpt>
      <trkpt lat="42.804685" lon="0.333422">
        <ele>1360.2</ele>
        <time>2020-06-05T13:07:37Z</time>
      </trkpt>
      <trkpt lat="42.804614" lon="0.333335">
        <ele>1361.9</ele>
        <time>2020-06-05T13:07:45Z</time>
      </trkpt>
      <trkpt lat="42.804534" lon="0.333265">
        <ele>1363.6</ele>
        <time>2020-06-05T13:07:53Z</time>
      </trkpt>
      <trkpt lat="42.804451" lon="0.333199">
        <ele>1367.1</ele>
        <time>2020-06-05T13:08:02Z</time>
      </trkpt>
      <trkpt lat="42.804362" lon="0.333158">
        <ele>1368.2</ele>
        <time>2020-06-05T13:08:10Z</time>
      </trkpt>
      <trkpt lat="42.804274" lon="0.333087">
        <ele>1369.7</ele>
        <time>2020-06-05T13:08:18Z</time>
      </trkpt>
      <trkpt lat="42.804191" lon="0.333025">
        <ele>1371.4</ele>
        <time>2020-06-05T13:08:26Z</time>
      </trkpt>
      <trkpt lat="42.804104" lon="0.332981">
        <ele>1373.3</ele>
        <time>2020-06-05T13:08:34Z</time>
      </trkpt>
      <trkpt lat="42.804021" lon="0.332922">
        <ele>1375.1</ele>
        <time>2020-06-05T13:08:42Z</time>
      </trkpt>
      <trkpt lat="42.803938" lon="0.332854">
        <ele>1376.8</ele>
        <time>2020-06-05T13:08:51Z</time>
      </trkpt>
      <trkpt lat="42.803847" lon="0.332818">
        <ele>1379.8</ele>
        <time>2020-06-05T13:09:00Z</time>
      </trkpt>
      <trkpt lat="42.803774" lon="0.332736">
        <ele>1382.4</ele>
        <time>2020-06-05T13:09:10Z</time>
      </trkpt>
      <trkpt lat="42.803702" lon="0.332653">
        <ele>1385.7</ele>
        <time>2020-06-05T13:09:20Z</time>
      </trkpt>
      <trkpt lat="42.803628" lon="0.332583">
        <ele>1388.7</ele>
        <time>2020-06-05T13:09:29Z</time>
      </trkpt>
      <trkpt lat="42.803553" lon="0.332514">
        <ele>1390.4</ele>
        <time>2020-06-05T13:09:38Z</time>
      </trkpt>
      <trkpt lat="42.803470" lon="0.332437">
        <ele>1393.4</ele>
        <time>2020-06-05T13:09:47Z</time>
      </trkpt>
      <trkpt lat="42.803393" lon="0.332364">
        <ele>1396.3</ele>
        <time>2020-06-05T13:09:55Z</time>
      </trkpt>
      <trkpt lat="42.803319" lon="0.332287">
        <ele>1399.2</ele>
        <time>2020-06-05T13:10:04Z</time>
      </trkpt>
      <trkpt lat="42.803257" lon="0.332192">
        <ele>1401.6</ele>
        <time>2020-06-05T13:10:14Z</time>
      </trkpt>
      <trkpt lat="42.803183" lon="0.332105">
        <ele>1404.1</ele>
        <time>2020-06-05T13:10:24Z</time>
      </trkpt>
      <trkpt lat="42.803105" lon="0.332042">
        <ele>1406.7</ele>
        <time>2020-06-05T13:10:34Z</time>
      </trkpt>
      <trkpt lat="42.803025" lon="0.331994">
        <ele>1409.4</ele>
        <time>2020-06-05T13:10:43Z</time>
      </trkpt>
      <trkpt lat="42.802933" lon="0.331967">
        <ele>1411.4</ele>
        <time>2020-06-05T13:10:52Z</time>
      </trkpt>
      <trkpt lat="42.802864" lon="0.331885">
        <ele>1414.2</ele>
        <time>2020-06-05T13:11:02Z</time>
      </trkpt>
      <trkpt lat="42.802775" lon="0.331865">
        <ele>1416.1</ele>
        <time>2020-06-05T13:11:11Z</time>
      </trkpt>
      <trkpt lat="42.802681" lon="0.331861">
        <ele>1419.2</ele>
        <time>2020-06-05T13:11:21Z</time>
      </trkpt>
      <trkpt lat="42.802587" lon="0.331896">
        <ele>1421.3</ele>
        <time>2020-06-05T13:11:30Z</time>
      </trkpt>
      <trkpt lat="42.802508" lon="0.331954">
        <ele>1423.2</ele>
        <time>2020-06-05T13:11:38Z</time>
      </trkpt>
      <trkpt lat="42.802420" lon="0.331997">
        <ele>1427.0</ele>
        <time>2020-06-05T13:11:48Z</time>
      </trkpt>
      <trkpt lat="42.802340" lon="0.332055">
        <ele>1429.6</ele>
        <time>2020-06-05T13:11:58Z</time>
      </trkpt>
      <trkpt lat="42.802255" lon="0.332120">
        <ele>1431.2</ele>
        <time>2020-06-05T13:12:08Z</time>
      </trkpt>
      <trkpt lat="42.802165" lon="0.332165">
        <ele>1433.9</ele>
        <time>2020-06-05T13:12:17Z</time>
      </trkpt>
      <trkpt lat="42.802076" lon="0.332194">
        <ele>1436.0</ele>
        <time>2020-06-05T13:12:26Z</time>
      </trkpt>
      <trkpt lat="42.801980" lon="0.332238">
        <ele>1438.6</ele>
        <time>2020-06-05T13:12:35Z</time>
      </trkpt>
      <trkpt lat="42.801879" lon="0.332275">
        <ele>1441.3</ele>
        <time>2020-06-05T13:12:45Z</time>
      </trkpt>
      <trkpt lat="42.801785" lon="0.332302">
        <ele>1443.0</ele>
        <time>2020-06-05T13:12:55Z</time>
      </trkpt>
      <trkpt lat="42.801692" lon="0.332329">
        <ele>1446.0</ele>
        <time>2020-06-05T13:13:06Z</time>
      </trkpt>
      <trkpt lat="42.801601" lon="0.332357">
        <ele>1448.4</ele>
        <time>2020-06-05T13:13:16Z</time>
      </trkpt>
      <trkpt lat="42.801510" lon="0.332406">
        <ele>1450.5</ele>
        <time>2020-06-05T13:13:26Z</time>
      </trkpt>
      <trkpt lat="42.801415" lon="0.332424">
        <ele>1452.7</ele>
        <time>2020-06-05T13:13:36Z</time>
      </trkpt>
      <trkpt lat="42.801327" lon="0.332462">
        <ele>1454.5</ele>
        <time>2020-06-05T13:13:46Z</time>
      </trkpt>
      <trkpt lat="42.801234" lon="0.332491">
        <ele>1456.7</ele>
        <time>2020-06-05T13:13:55Z</time>
      </trkpt>
      <trkpt lat="42.801143" lon="0.332502">
        <ele>1458.7</ele>
        <time>2020-06-05T13:14:04Z</time>
      </trkpt>
      <trkpt lat="42.801048" lon="0.332482">
        <ele>1462.2</ele>
        <time>2020-06-05T13:14:15Z</time>
      </trkpt>
      <trkpt lat="42.800967" lon="0.332424">
        <ele>1465.8</ele>
        <time>2020-06-05T13:14:30Z</time>
      </trkpt>
      <trkpt lat="42.800882" lon="0.332372">
        <ele>1463.5</ele>
        <time>2020-06-05T13:14:56Z</time>
      </trkpt>
      <trkpt lat="42.800825" lon="0.332273">
        <ele>1463.5</ele>
        <time>2020-06-05T13:15:07Z</time>
      </trkpt>
      <trkpt lat="42.800783" lon="0.332153">
        <ele>1463.6</ele>
        <time>2020-06-05T13:15:27Z</time>
      </trkpt>
      <trkpt lat="42.800730" lon="0.332048">
        <ele>1463.6</ele>
        <time>2020-06-05T13:15:36Z</time>
      </trkpt>
      <trkpt lat="42.800663" lon="0.331955">
        <ele>1463.6</ele>
        <time>2020-06-05T13:15:45Z</time>
      </trkpt>
      <trkpt lat="42.800595" lon="0.331871">
        <ele>1464.4</ele>
        <time>2020-06-05T13:15:53Z</time>
      </trkpt>
      <trkpt lat="42.800521" lon="0.331795">
        <ele>1465.2</ele>
        <time>2020-06-05T13:16:01Z</time>
      </trkpt>
      <trkpt lat="42.800442" lon="0.331704">
        <ele>1465.9</ele>
        <time>2020-06-05T13:16:10Z</time>
      </trkpt>
      <trkpt lat="42.800342" lon="0.331630">
        <ele>1467.6</ele>
        <time>2020-06-05T13:16:21Z</time>
      </trkpt>
      <trkpt lat="42.800284" lon="0.331534">
        <ele>1469.5</ele>
        <time>2020-06-05T13:16:31Z</time>
      </trkpt>
      <trkpt lat="42.800214" lon="0.331436">
        <ele>1471.5</ele>
        <time>2020-06-05T13:16:42Z</time>
      </trkpt>
      <trkpt lat="42.800118" lon="0.331361">
        <ele>1473.3</ele>
        <time>2020-06-05T13:16:51Z</time>
      </trkpt>
      <trkpt lat="42.800048" lon="0.331306">
        <ele>1475.1</ele>
        <time>2020-06-05T13:17:04Z</time>
      </trkpt>
      <trkpt lat="42.799986" lon="0.331211">
        <ele>1477.8</ele>
        <time>2020-06-05T13:17:13Z</time>
      </trkpt>
      <trkpt lat="42.799906" lon="0.331155">
        <ele>1478.8</ele>
        <time>2020-06-05T13:17:22Z</time>
      </trkpt>
      <trkpt lat="42.799811" lon="0.331121">
        <ele>1480.6</ele>
        <time>2020-06-05T13:17:31Z</time>
      </trkpt>
      <trkpt lat="42.799714" lon="0.331074">
        <ele>1482.2</ele>
        <time>2020-06-05T13:17:40Z</time>
      </trkpt>
      <trkpt lat="42.799616" lon="0.331032">
        <ele>1483.8</ele>
        <time>2020-06-05T13:17:49Z</time>
      </trkpt>
      <trkpt lat="42.799516" lon="0.330973">
        <ele>1486.4</ele>
        <time>2020-06-05T13:18:00Z</time>
      </trkpt>
      <trkpt lat="42.799402" lon="0.330933">
        <ele>1490.0</ele>
        <time>2020-06-05T13:18:12Z</time>
      </trkpt>
      <trkpt lat="42.799292" lon="0.330936">
        <ele>1492.7</ele>
        <time>2020-06-05T13:18:24Z</time>
      </trkpt>
      <trkpt lat="42.799168" lon="0.330998">
        <ele>1495.4</ele>
        <time>2020-06-05T13:18:41Z</time>
      </trkpt>
      <trkpt lat="42.799061" lon="0.331009">
        <ele>1497.1</ele>
        <time>2020-06-05T13:18:53Z</time>
      </trkpt>
      <trkpt lat="42.798961" lon="0.331011">
        <ele>1499.6</ele>
        <time>2020-06-05T13:19:04Z</time>
      </trkpt>
      <trkpt lat="42.798850" lon="0.331034">
        <ele>1502.0</ele>
        <time>2020-06-05T13:19:17Z</time>
      </trkpt>
      <trkpt lat="42.798755" lon="0.331040">
        <ele>1503.8</ele>
        <time>2020-06-05T13:19:27Z</time>
      </trkpt>
      <trkpt lat="42.798665" lon="0.331009">
        <ele>1505.7</ele>
        <time>2020-06-05T13:19:36Z</time>
      </trkpt>
      <trkpt lat="42.798570" lon="0.330994">
        <ele>1508.3</ele>
        <time>2020-06-05T13:19:46Z</time>
      </trkpt>
      <trkpt lat="42.798461" lon="0.330982">
        <ele>1510.0</ele>
        <time>2020-06-05T13:19:56Z</time>
      </trkpt>
      <trkpt lat="42.798357" lon="0.330957">
        <ele>1512.7</ele>
        <time>2020-06-05T13:20:07Z</time>
      </trkpt>
      <trkpt lat="42.798247" lon="0.330899">
        <ele>1516.3</ele>
        <time>2020-06-05T13:20:18Z</time>
      </trkpt>
      <trkpt lat="42.798158" lon="0.330876">
        <ele>1519.9</ele>
        <time>2020-06-05T13:20:31Z</time>
      </trkpt>
      <trkpt lat="42.798069" lon="0.330861">
        <ele>1522.6</ele>
        <time>2020-06-05T13:20:42Z</time>
      </trkpt>
      <trkpt lat="42.798008" lon="0.330817">
        <ele>1525.6</ele>
        <time>2020-06-05T13:20:56Z</time>
      </trkpt>
      <trkpt lat="42.797932" lon="0.330843">
        <ele>1529.1</ele>
        <time>2020-06-05T13:21:09Z</time>
      </trkpt>
      <trkpt lat="42.797857" lon="0.330841">
        <ele>1532.9</ele>
        <time>2020-06-05T13:21:23Z</time>
      </trkpt>
      <trkpt lat="42.797792" lon="0.330793">
        <ele>1536.7</ele>
        <time>2020-06-05T13:21:37Z</time>
      </trkpt>
      <trkpt lat="42.797722" lon="0.330731">
        <ele>1540.3</ele>
        <time>2020-06-05T13:21:52Z</time>
      </trkpt>
      <trkpt lat="42.797644" lon="0.330696">
        <ele>1544.8</ele>
        <time>2020-06-05T13:22:07Z</time>
      </trkpt>
      <trkpt lat="42.797585" lon="0.330603">
        <ele>1547.3</ele>
        <time>2020-06-05T13:22:21Z</time>
      </trkpt>
      <trkpt lat="42.797494" lon="0.330575">
        <ele>1550.2</ele>
        <time>2020-06-05T13:22:32Z</time>
      </trkpt>
      <trkpt lat="42.797396" lon="0.330557">
        <ele>1552.7</ele>
        <time>2020-06-05T13:22:43Z</time>
      </trkpt>
      <trkpt lat="42.797304" lon="0.330585">
        <ele>1555.2</ele>
        <time>2020-06-05T13:22:53Z</time>
      </trkpt>
      <trkpt lat="42.797222" lon="0.330635">
        <ele>1559.0</ele>
        <time>2020-06-05T13:23:05Z</time>
      </trkpt>
      <trkpt lat="42.797148" lon="0.330693">
        <ele>1561.3</ele>
        <time>2020-06-05T13:23:17Z</time>
      </trkpt>
      <trkpt lat="42.797072" lon="0.330769">
        <ele>1564.6</ele>
        <time>2020-06-05T13:23:33Z</time>
      </trkpt>
      <trkpt lat="42.797011" lon="0.330819">
        <ele>1564.6</ele>
        <time>2020-06-05T13:23:48Z</time>
      </trkpt>
      <trkpt lat="42.796916" lon="0.330797">
        <ele>1564.7</ele>
        <time>2020-06-05T13:23:57Z</time>
      </trkpt>
      <trkpt lat="42.796818" lon="0.330750">
        <ele>1564.7</ele>
        <time>2020-06-05T13:24:06Z</time>
      </trkpt>
      <trkpt lat="42.796720" lon="0.330721">
        <ele>1564.8</ele>
        <time>2020-06-05T13:24:14Z</time>
      </trkpt>
      <trkpt lat="42.796622" lon="0.330695">
        <ele>1564.8</ele>
        <time>2020-06-05T13:24:23Z</time>
      </trkpt>
      <trkpt lat="42.796526" lon="0.330718">
        <ele>1564.8</ele>
        <time>2020-06-05T13:24:34Z</time>
      </trkpt>
      <trkpt lat="42.796455" lon="0.330799">
        <ele>1564.8</ele>
        <time>2020-06-05T13:24:43Z</time>
      </trkpt>
      <trkpt lat="42.796383" lon="0.330879">
        <ele>1564.9</ele>
        <time>2020-06-05T13:24:51Z</time>
      </trkpt>
      <trkpt lat="42.796299" lon="0.330947">
        <ele>1564.9</ele>
        <time>2020-06-05T13:24:59Z</time>
      </trkpt>
      <trkpt lat="42.796217" lon="0.331009">
        <ele>1565.9</ele>
        <time>2020-06-05T13:25:07Z</time>
      </trkpt>
      <trkpt lat="42.796125" lon="0.331067">
        <ele>1568.4</ele>
        <time>2020-06-05T13:25:17Z</time>
      </trkpt>
      <trkpt lat="42.796062" lon="0.331147">
        <ele>1570.4</ele>
        <time>2020-06-05T13:25:28Z</time>
      </trkpt>
      <trkpt lat="42.795993" lon="0.331190">
        <ele>1573.8</ele>
        <time>2020-06-05T13:25:41Z</time>
      </trkpt>
      <trkpt lat="42.795914" lon="0.331240">
        <ele>1576.7</ele>
        <time>2020-06-05T13:25:54Z</time>
      </trkpt>
      <trkpt lat="42.795833" lon="0.331312">
        <ele>1577.4</ele>
        <time>2020-06-05T13:26:03Z</time>
      </trkpt>
      <trkpt lat="42.795740" lon="0.331364">
        <ele>1577.4</ele>
        <time>2020-06-05T13:26:12Z</time>
      </trkpt>
      <trkpt lat="42.795654" lon="0.331404">
        <ele>1579.1</ele>
        <time>2020-06-05T13:26:20Z</time>
      </trkpt>
      <trkpt lat="42.795570" lon="0.331455">
        <ele>1581.0</ele>
        <time>2020-06-05T13:26:28Z</time>
      </trkpt>
      <trkpt lat="42.795511" lon="0.331539">
        <ele>1581.8</ele>
        <time>2020-06-05T13:26:36Z</time>
      </trkpt>
      <trkpt lat="42.795458" lon="0.331651">
        <ele>1582.8</ele>
        <time>2020-06-05T13:26:44Z</time>
      </trkpt>
      <trkpt lat="42.795411" lon="0.331758">
        <ele>1584.7</ele>
        <time>2020-06-05T13:26:52Z</time>
      </trkpt>
      <trkpt lat="42.795366" lon="0.331879">
        <ele>1586.6</ele>
        <time>2020-06-05T13:27:01Z</time>
      </trkpt>
      <trkpt lat="42.795309" lon="0.331981">
        <ele>1588.2</ele>
        <time>2020-06-05T13:27:10Z</time>
      </trkpt>
      <trkpt lat="42.795287" lon="0.332113">
        <ele>1588.2</ele>
        <time>2020-06-05T13:27:20Z</time>
      </trkpt>
      <trkpt lat="42.795229" lon="0.332221">
        <ele>1591.1</ele>
        <time>2020-06-05T13:27:29Z</time>
      </trkpt>
      <trkpt lat="42.795202" lon="0.332353">
        <ele>1592.9</ele>
        <time>2020-06-05T13:27:40Z</time>
      </trkpt>
      <trkpt lat="42.795159" lon="0.332479">
        <ele>1594.5</ele>
        <time>2020-06-05T13:27:50Z</time>
      </trkpt>
      <trkpt lat="42.795138" lon="0.332603">
        <ele>1596.3</ele>
        <time>2020-06-05T13:28:00Z</time>
      </trkpt>
      <trkpt lat="42.795109" lon="0.332736">
        <ele>1598.1</ele>
        <time>2020-06-05T13:28:11Z</time>
      </trkpt>
      <trkpt lat="42.795051" lon="0.332848">
        <ele>1601.9</ele>
        <time>2020-06-05T13:28:24Z</time>
      </trkpt>
      <trkpt lat="42.795029" lon="0.332969">
        <ele>1604.0</ele>
        <time>2020-06-05T13:28:35Z</time>
      </trkpt>
      <trkpt lat="42.794978" lon="0.333101">
        <ele>1606.5</ele>
        <time>2020-06-05T13:28:46Z</time>
      </trkpt>
      <trkpt lat="42.794949" lon="0.333241">
        <ele>1608.3</ele>
        <time>2020-06-05T13:28:57Z</time>
      </trkpt>
      <trkpt lat="42.794910" lon="0.333376">
        <ele>1611.9</ele>
        <time>2020-06-05T13:29:11Z</time>
      </trkpt>
      <trkpt lat="42.794876" lon="0.333515">
        <ele>1613.5</ele>
        <time>2020-06-05T13:29:21Z</time>
      </trkpt>
      <trkpt lat="42.794840" lon="0.333664">
        <ele>1616.2</ele>
        <time>2020-06-05T13:29:34Z</time>
      </trkpt>
      <trkpt lat="42.794808" lon="0.333783">
        <ele>1618.9</ele>
        <time>2020-06-05T13:29:45Z</time>
      </trkpt>
      <trkpt lat="42.794783" lon="0.333923">
        <ele>1621.5</ele>
        <time>2020-06-05T13:29:56Z</time>
      </trkpt>
      <trkpt lat="42.794766" lon="0.334048">
        <ele>1623.3</ele>
        <time>2020-06-05T13:30:06Z</time>
      </trkpt>
      <trkpt lat="42.794726" lon="0.334165">
        <ele>1626.5</ele>
        <time>2020-06-05T13:30:17Z</time>
      </trkpt>
      <trkpt lat="42.794699" lon="0.334292">
        <ele>1629.3</ele>
        <time>2020-06-05T13:30:28Z</time>
      </trkpt>
      <trkpt lat="42.794666" lon="0.334420">
        <ele>1631.9</ele>
        <time>2020-06-05T13:30:39Z</time>
      </trkpt>
      <trkpt lat="42.794625" lon="0.334551">
        <ele>1634.6</ele>
        <time>2020-06-05T13:30:49Z</time>
      </trkpt>
      <trkpt lat="42.794600" lon="0.334698">
        <ele>1637.1</ele>
        <time>2020-06-05T13:31:00Z</time>
      </trkpt>
      <trkpt lat="42.794556" lon="0.334833">
        <ele>1641.9</ele>
        <time>2020-06-05T13:31:15Z</time>
      </trkpt>
      <trkpt lat="42.794504" lon="0.334945">
        <ele>1645.6</ele>
        <time>2020-06-05T13:31:29Z</time>
      </trkpt>
      <trkpt lat="42.794463" lon="0.335065">
        <ele>1648.1</ele>
        <time>2020-06-05T13:31:40Z</time>
      </trkpt>
      <trkpt lat="42.794397" lon="0.335168">
        <ele>1651.0</ele>
        <time>2020-06-05T13:31:51Z</time>
      </trkpt>
      <trkpt lat="42.794326" lon="0.335248">
        <ele>1653.7</ele>
        <time>2020-06-05T13:32:01Z</time>
      </trkpt>
      <trkpt lat="42.794255" lon="0.335321">
        <ele>1657.3</ele>
        <time>2020-06-05T13:32:11Z</time>
      </trkpt>
      <trkpt lat="42.794167" lon="0.335351">
        <ele>1659.0</ele>
        <time>2020-06-05T13:32:22Z</time>
      </trkpt>
      <trkpt lat="42.794080" lon="0.335385">
        <ele>1660.9</ele>
        <time>2020-06-05T13:32:31Z</time>
      </trkpt>
      <trkpt lat="42.793998" lon="0.335320">
        <ele>1662.8</ele>
        <time>2020-06-05T13:32:40Z</time>
      </trkpt>
      <trkpt lat="42.793916" lon="0.335266">
        <ele>1663.7</ele>
        <time>2020-06-05T13:32:48Z</time>
      </trkpt>
      <trkpt lat="42.793826" lon="0.335198">
        <ele>1664.6</ele>
        <time>2020-06-05T13:32:57Z</time>
      </trkpt>
      <trkpt lat="42.793740" lon="0.335140">
        <ele>1664.6</ele>
        <time>2020-06-05T13:33:05Z</time>
      </trkpt>
      <trkpt lat="42.793651" lon="0.335084">
        <ele>1665.5</ele>
        <time>2020-06-05T13:33:13Z</time>
      </trkpt>
      <trkpt lat="42.793563" lon="0.335020">
        <ele>1666.3</ele>
        <time>2020-06-05T13:33:21Z</time>
      </trkpt>
      <trkpt lat="42.793471" lon="0.334973">
        <ele>1667.1</ele>
        <time>2020-06-05T13:33:29Z</time>
      </trkpt>
      <trkpt lat="42.793380" lon="0.334914">
        <ele>1668.0</ele>
        <time>2020-06-05T13:33:37Z</time>
      </trkpt>
      <trkpt lat="42.793291" lon="0.334847">
        <ele>1668.8</ele>
        <time>2020-06-05T13:33:45Z</time>
      </trkpt>
      <trkpt lat="42.793199" lon="0.334789">
        <ele>1669.5</ele>
        <time>2020-06-05T13:33:53Z</time>
      </trkpt>
      <trkpt lat="42.793107" lon="0.334775">
        <ele>1671.1</ele>
        <time>2020-06-05T13:34:01Z</time>
      </trkpt>
      <trkpt lat="42.793007" lon="0.334806">
        <ele>1673.7</ele>
        <time>2020-06-05T13:34:10Z</time>
      </trkpt>
      <trkpt lat="42.792929" lon="0.334881">
        <ele>1676.7</ele>
        <time>2020-06-05T13:34:19Z</time>
      </trkpt>
      <trkpt lat="42.792843" lon="0.334938">
        <ele>1680.1</ele>
        <time>2020-06-05T13:34:31Z</time>
      </trkpt>
      <trkpt lat="42.792760" lon="0.334983">
        <ele>1681.8</ele>
        <time>2020-06-05T13:34:41Z</time>
      </trkpt>
      <trkpt lat="42.792682" lon="0.335048">
        <ele>1682.7</ele>
        <time>2020-06-05T13:34:54Z</time>
      </trkpt>
      <trkpt lat="42.792601" lon="0.335112">
        <ele>1685.5</ele>
        <time>2020-06-05T13:35:04Z</time>
      </trkpt>
      <trkpt lat="42.792523" lon="0.335179">
        <ele>1688.2</ele>
        <time>2020-06-05T13:35:13Z</time>
      </trkpt>
      <trkpt lat="42.792441" lon="0.335237">
        <ele>1689.8</ele>
        <time>2020-06-05T13:35:22Z</time>
      </trkpt>
      <trkpt lat="42.792364" lon="0.335320">
        <ele>1691.9</ele>
        <time>2020-06-05T13:35:31Z</time>
      </trkpt>
      <trkpt lat="42.792278" lon="0.335381">
        <ele>1694.9</ele>
        <time>2020-06-05T13:35:40Z</time>
      </trkpt>
      <trkpt lat="42.792220" lon="0.335488">
        <ele>1697.6</ele>
        <time>2020-06-05T13:35:50Z</time>
      </trkpt>
      <trkpt lat="42.792158" lon="0.335587">
        <ele>1699.3</ele>
        <time>2020-06-05T13:35:59Z</time>
      </trkpt>
      <trkpt lat="42.792088" lon="0.335689">
        <ele>1701.3</ele>
        <time>2020-06-05T13:36:08Z</time>
      </trkpt>
      <trkpt lat="42.792029" lon="0.335804">
        <ele>1703.1</ele>
        <time>2020-06-05T13:36:17Z</time>
      </trkpt>
      <trkpt lat="42.791972" lon="0.335911">
        <ele>1705.8</ele>
        <time>2020-06-05T13:36:26Z</time>
      </trkpt>
      <trkpt lat="42.791919" lon="0.336018">
        <ele>1707.6</ele>
        <time>2020-06-05T13:36:35Z</time>
      </trkpt>
      <trkpt lat="42.791861" lon="0.336133">
        <ele>1710.1</ele>
        <time>2020-06-05T13:36:45Z</time>
      </trkpt>
      <trkpt lat="42.791828" lon="0.336247">
        <ele>1711.7</ele>
        <time>2020-06-05T13:36:54Z</time>
      </trkpt>
      <trkpt lat="42.791797" lon="0.336375">
        <ele>1715.2</ele>
        <time>2020-06-05T13:37:05Z</time>
      </trkpt>
      <trkpt lat="42.791801" lon="0.336504">
        <ele>1715.9</ele>
        <time>2020-06-05T13:37:14Z</time>
      </trkpt>
      <trkpt lat="42.791793" lon="0.336636">
        <ele>1718.6</ele>
        <time>2020-06-05T13:37:24Z</time>
      </trkpt>
      <trkpt lat="42.791761" lon="0.336752">
        <ele>1721.4</ele>
        <time>2020-06-05T13:37:34Z</time>
      </trkpt>
      <trkpt lat="42.791716" lon="0.336866">
        <ele>1724.0</ele>
        <time>2020-06-05T13:37:44Z</time>
      </trkpt>
      <trkpt lat="42.791665" lon="0.336970">
        <ele>1725.8</ele>
        <time>2020-06-05T13:37:52Z</time>
      </trkpt>
      <trkpt lat="42.791613" lon="0.337074">
        <ele>1726.9</ele>
        <time>2020-06-05T13:38:00Z</time>
      </trkpt>
      <trkpt lat="42.791561" lon="0.337178">
        <ele>1727.8</ele>
        <time>2020-06-05T13:38:08Z</time>
      </trkpt>
      <trkpt lat="42.791511" lon="0.337291">
        <ele>1728.7</ele>
        <time>2020-06-05T13:38:17Z</time>
      </trkpt>
      <trkpt lat="42.791466" lon="0.337414">
        <ele>1728.7</ele>
        <time>2020-06-05T13:38:25Z</time>
      </trkpt>
      <trkpt lat="42.791419" lon="0.337532">
        <ele>1729.6</ele>
        <time>2020-06-05T13:38:34Z</time>
      </trkpt>
      <trkpt lat="42.791409" lon="0.337663">
        <ele>1730.4</ele>
        <time>2020-06-05T13:38:44Z</time>
      </trkpt>
      <trkpt lat="42.791399" lon="0.337804">
        <ele>1730.4</ele>
        <time>2020-06-05T13:38:53Z</time>
      </trkpt>
      <trkpt lat="42.791382" lon="0.337935">
        <ele>1731.3</ele>
        <time>2020-06-05T13:39:01Z</time>
      </trkpt>
      <trkpt lat="42.791382" lon="0.338071">
        <ele>1732.9</ele>
        <time>2020-06-05T13:39:10Z</time>
      </trkpt>
      <trkpt lat="42.791389" lon="0.338200">
        <ele>1733.8</ele>
        <time>2020-06-05T13:39:17Z</time>
      </trkpt>
      <trkpt lat="42.791414" lon="0.338333">
        <ele>1734.6</ele>
        <time>2020-06-05T13:39:25Z</time>
      </trkpt>
      <trkpt lat="42.791411" lon="0.338473">
        <ele>1737.5</ele>
        <time>2020-06-05T13:39:33Z</time>
      </trkpt>
      <trkpt lat="42.791413" lon="0.338592">
        <ele>1738.6</ele>
        <time>2020-06-05T13:39:41Z</time>
      </trkpt>
      <trkpt lat="42.791415" lon="0.338727">
        <ele>1740.3</ele>
        <time>2020-06-05T13:39:50Z</time>
      </trkpt>
      <trkpt lat="42.791430" lon="0.338854">
        <ele>1741.1</ele>
        <time>2020-06-05T13:40:13Z</time>
      </trkpt>
      <trkpt lat="42.791449" lon="0.338974">
        <ele>1742.1</ele>
        <time>2020-06-05T13:40:21Z</time>
      </trkpt>
      <trkpt lat="42.791469" lon="0.339095">
        <ele>1742.9</ele>
        <time>2020-06-05T13:40:29Z</time>
      </trkpt>
      <trkpt lat="42.791512" lon="0.339210">
        <ele>1744.5</ele>
        <time>2020-06-05T13:40:37Z</time>
      </trkpt>
      <trkpt lat="42.791521" lon="0.339334">
        <ele>1747.0</ele>
        <time>2020-06-05T13:40:45Z</time>
      </trkpt>
      <trkpt lat="42.791564" lon="0.339449">
        <ele>1747.1</ele>
        <time>2020-06-05T13:40:54Z</time>
      </trkpt>
      <trkpt lat="42.791586" lon="0.339574">
        <ele>1747.1</ele>
        <time>2020-06-05T13:41:03Z</time>
      </trkpt>
      <trkpt lat="42.791624" lon="0.339702">
        <ele>1747.2</ele>
        <time>2020-06-05T13:41:13Z</time>
      </trkpt>
      <trkpt lat="42.791643" lon="0.339782">
        <ele>1746.4</ele>
        <time>2020-06-05T13:41:38Z</time>
      </trkpt>
      <trkpt lat="42.791708" lon="0.339880">
        <ele>1745.8</ele>
        <time>2020-06-05T13:43:04Z</time>
      </trkpt>
      <trkpt lat="42.791795" lon="0.339929">
        <ele>1740.8</ele>
        <time>2020-06-05T13:43:20Z</time>
      </trkpt>
      <trkpt lat="42.791843" lon="0.339970">
        <ele>1741.4</ele>
        <time>2020-06-05T13:44:36Z</time>
      </trkpt>
      <trkpt lat="42.791766" lon="0.339911">
        <ele>1744.2</ele>
        <time>2020-06-05T13:44:49Z</time>
      </trkpt>
      <trkpt lat="42.791672" lon="0.339878">
        <ele>1745.3</ele>
        <time>2020-06-05T13:45:08Z</time>
      </trkpt>
      <trkpt lat="42.791635" lon="0.339776">
        <ele>1745.3</ele>
        <time>2020-06-05T13:45:30Z</time>
      </trkpt>
      <trkpt lat="42.791601" lon="0.339658">
        <ele>1745.4</ele>
        <time>2020-06-05T13:45:39Z</time>
      </trkpt>
      <trkpt lat="42.791583" lon="0.339524">
        <ele>1745.4</ele>
        <time>2020-06-05T13:45:49Z</time>
      </trkpt>
      <trkpt lat="42.791563" lon="0.339402">
        <ele>1745.4</ele>
        <time>2020-06-05T13:46:00Z</time>
      </trkpt>
      <trkpt lat="42.791505" lon="0.339317">
        <ele>1746.1</ele>
        <time>2020-06-05T13:46:13Z</time>
      </trkpt>
      <trkpt lat="42.791432" lon="0.339241">
        <ele>1747.8</ele>
        <time>2020-06-05T13:46:22Z</time>
      </trkpt>
      <trkpt lat="42.791359" lon="0.339189">
        <ele>1748.9</ele>
        <time>2020-06-05T13:46:30Z</time>
      </trkpt>
      <trkpt lat="42.791296" lon="0.339092">
        <ele>1750.5</ele>
        <time>2020-06-05T13:46:39Z</time>
      </trkpt>
      <trkpt lat="42.791212" lon="0.339022">
        <ele>1752.2</ele>
        <time>2020-06-05T13:46:48Z</time>
      </trkpt>
      <trkpt lat="42.791141" lon="0.338927">
        <ele>1753.8</ele>
        <time>2020-06-05T13:46:57Z</time>
      </trkpt>
      <trkpt lat="42.791076" lon="0.338830">
        <ele>1755.5</ele>
        <time>2020-06-05T13:47:07Z</time>
      </trkpt>
      <trkpt lat="42.791031" lon="0.338718">
        <ele>1758.2</ele>
        <time>2020-06-05T13:47:17Z</time>
      </trkpt>
      <trkpt lat="42.790997" lon="0.338604">
        <ele>1760.6</ele>
        <time>2020-06-05T13:47:27Z</time>
      </trkpt>
      <trkpt lat="42.790945" lon="0.338499">
        <ele>1763.4</ele>
        <time>2020-06-05T13:47:39Z</time>
      </trkpt>
      <trkpt lat="42.790888" lon="0.338393">
        <ele>1765.8</ele>
        <time>2020-06-05T13:47:50Z</time>
      </trkpt>
      <trkpt lat="42.790813" lon="0.338318">
        <ele>1768.9</ele>
        <time>2020-06-05T13:48:00Z</time>
      </trkpt>
      <trkpt lat="42.790741" lon="0.338231">
        <ele>1771.5</ele>
        <time>2020-06-05T13:48:11Z</time>
      </trkpt>
      <trkpt lat="42.790671" lon="0.338151">
        <ele>1773.2</ele>
        <time>2020-06-05T13:48:21Z</time>
      </trkpt>
      <trkpt lat="42.790606" lon="0.338057">
        <ele>1775.8</ele>
        <time>2020-06-05T13:48:30Z</time>
      </trkpt>
      <trkpt lat="42.790525" lon="0.337983">
        <ele>1778.7</ele>
        <time>2020-06-05T13:48:40Z</time>
      </trkpt>
      <trkpt lat="42.790448" lon="0.337897">
        <ele>1780.6</ele>
        <time>2020-06-05T13:48:50Z</time>
      </trkpt>
      <trkpt lat="42.790381" lon="0.337805">
        <ele>1782.4</ele>
        <time>2020-06-05T13:49:10Z</time>
      </trkpt>
      <trkpt lat="42.790305" lon="0.337727">
        <ele>1785.5</ele>
        <time>2020-06-05T13:49:21Z</time>
      </trkpt>
      <trkpt lat="42.790240" lon="0.337651">
        <ele>1788.8</ele>
        <time>2020-06-05T13:49:33Z</time>
      </trkpt>
      <trkpt lat="42.790166" lon="0.337577">
        <ele>1790.5</ele>
        <time>2020-06-05T13:49:43Z</time>
      </trkpt>
      <trkpt lat="42.790126" lon="0.337470">
        <ele>1792.4</ele>
        <time>2020-06-05T13:49:52Z</time>
      </trkpt>
      <trkpt lat="42.790049" lon="0.337394">
        <ele>1795.4</ele>
        <time>2020-06-05T13:50:02Z</time>
      </trkpt>
      <trkpt lat="42.790014" lon="0.337308">
        <ele>1798.2</ele>
        <time>2020-06-05T13:50:14Z</time>
      </trkpt>
      <trkpt lat="42.789958" lon="0.337199">
        <ele>1800.8</ele>
        <time>2020-06-05T13:50:25Z</time>
      </trkpt>
      <trkpt lat="42.789900" lon="0.337100">
        <ele>1803.5</ele>
        <time>2020-06-05T13:50:35Z</time>
      </trkpt>
      <trkpt lat="42.789838" lon="0.337005">
        <ele>1805.3</ele>
        <time>2020-06-05T13:50:45Z</time>
      </trkpt>
      <trkpt lat="42.789783" lon="0.336895">
        <ele>1807.8</ele>
        <time>2020-06-05T13:50:55Z</time>
      </trkpt>
      <trkpt lat="42.789743" lon="0.336784">
        <ele>1810.4</ele>
        <time>2020-06-05T13:51:05Z</time>
      </trkpt>
      <trkpt lat="42.789724" lon="0.336660">
        <ele>1812.3</ele>
        <time>2020-06-05T13:51:15Z</time>
      </trkpt>
      <trkpt lat="42.789697" lon="0.336538">
        <ele>1814.8</ele>
        <time>2020-06-05T13:51:25Z</time>
      </trkpt>
      <trkpt lat="42.789687" lon="0.336414">
        <ele>1816.9</ele>
        <time>2020-06-05T13:51:36Z</time>
      </trkpt>
      <trkpt lat="42.789688" lon="0.336290">
        <ele>1819.6</ele>
        <time>2020-06-05T13:51:47Z</time>
      </trkpt>
      <trkpt lat="42.789664" lon="0.336172">
        <ele>1822.1</ele>
        <time>2020-06-05T13:51:58Z</time>
      </trkpt>
      <trkpt lat="42.789708" lon="0.336087">
        <ele>1825.9</ele>
        <time>2020-06-05T13:52:13Z</time>
      </trkpt>
      <trkpt lat="42.789739" lon="0.335967">
        <ele>1829.2</ele>
        <time>2020-06-05T13:52:27Z</time>
      </trkpt>
      <trkpt lat="42.789770" lon="0.335843">
        <ele>1832.0</ele>
        <time>2020-06-05T13:52:39Z</time>
      </trkpt>
      <trkpt lat="42.789763" lon="0.335716">
        <ele>1835.7</ele>
        <time>2020-06-05T13:52:52Z</time>
      </trkpt>
      <trkpt lat="42.789703" lon="0.335625">
        <ele>1840.0</ele>
        <time>2020-06-05T13:53:05Z</time>
      </trkpt>
      <trkpt lat="42.789648" lon="0.335522">
        <ele>1841.9</ele>
        <time>2020-06-05T13:53:21Z</time>
      </trkpt>
      <trkpt lat="42.789606" lon="0.335414">
        <ele>1846.9</ele>
        <time>2020-06-05T13:53:35Z</time>
      </trkpt>
      <trkpt lat="42.789573" lon="0.335296">
        <ele>1850.6</ele>
        <time>2020-06-05T13:53:47Z</time>
      </trkpt>
      <trkpt lat="42.789552" lon="0.335179">
        <ele>1853.2</ele>
        <time>2020-06-05T13:53:57Z</time>
      </trkpt>
      <trkpt lat="42.789537" lon="0.335066">
        <ele>1855.7</ele>
        <time>2020-06-05T13:54:06Z</time>
      </trkpt>
      <trkpt lat="42.789524" lon="0.334949">
        <ele>1858.3</ele>
        <time>2020-06-05T13:54:15Z</time>
      </trkpt>
      <trkpt lat="42.789502" lon="0.334830">
        <ele>1860.0</ele>
        <time>2020-06-05T13:54:24Z</time>
      </trkpt>
      <trkpt lat="42.789467" lon="0.334710">
        <ele>1860.8</ele>
        <time>2020-06-05T13:54:33Z</time>
      </trkpt>
      <trkpt lat="42.789414" lon="0.334603">
        <ele>1860.8</ele>
        <time>2020-06-05T13:54:41Z</time>
      </trkpt>
      <trkpt lat="42.789358" lon="0.334495">
        <ele>1861.9</ele>
        <time>2020-06-05T13:54:49Z</time>
      </trkpt>
      <trkpt lat="42.789289" lon="0.334407">
        <ele>1862.8</ele>
        <time>2020-06-05T13:54:57Z</time>
      </trkpt>
      <trkpt lat="42.789212" lon="0.334334">
        <ele>1863.6</ele>
        <time>2020-06-05T13:55:05Z</time>
      </trkpt>
      <trkpt lat="42.789147" lon="0.334239">
        <ele>1864.6</ele>
        <time>2020-06-05T13:55:13Z</time>
      </trkpt>
      <trkpt lat="42.789082" lon="0.334149">
        <ele>1865.4</ele>
        <time>2020-06-05T13:55:21Z</time>
      </trkpt>
      <trkpt lat="42.789003" lon="0.334066">
        <ele>1865.4</ele>
        <time>2020-06-05T13:55:29Z</time>
      </trkpt>
      <trkpt lat="42.788929" lon="0.333978">
        <ele>1866.2</ele>
        <time>2020-06-05T13:55:37Z</time>
      </trkpt>
      <trkpt lat="42.788854" lon="0.333907">
        <ele>1867.9</ele>
        <time>2020-06-05T13:55:45Z</time>
      </trkpt>
      <trkpt lat="42.788775" lon="0.333828">
        <ele>1869.5</ele>
        <time>2020-06-05T13:55:53Z</time>
      </trkpt>
      <trkpt lat="42.788699" lon="0.333741">
        <ele>1870.3</ele>
        <time>2020-06-05T13:56:01Z</time>
      </trkpt>
      <trkpt lat="42.788646" lon="0.333628">
        <ele>1871.1</ele>
        <time>2020-06-05T13:56:09Z</time>
      </trkpt>
      <trkpt lat="42.788599" lon="0.333507">
        <ele>1872.8</ele>
        <time>2020-06-05T13:56:17Z</time>
      </trkpt>
      <trkpt lat="42.788550" lon="0.333382">
        <ele>1874.5</ele>
        <time>2020-06-05T13:56:25Z</time>
      </trkpt>
      <trkpt lat="42.788509" lon="0.333263">
        <ele>1876.1</ele>
        <time>2020-06-05T13:56:33Z</time>
      </trkpt>
      <trkpt lat="42.788466" lon="0.333144">
        <ele>1877.1</ele>
        <time>2020-06-05T13:56:41Z</time>
      </trkpt>
      <trkpt lat="42.788423" lon="0.333026">
        <ele>1878.2</ele>
        <time>2020-06-05T13:56:50Z</time>
      </trkpt>
      <trkpt lat="42.788382" lon="0.332913">
        <ele>1878.2</ele>
        <time>2020-06-05T13:56:57Z</time>
      </trkpt>
      <trkpt lat="42.788344" lon="0.332790">
        <ele>1880.4</ele>
        <time>2020-06-05T13:57:05Z</time>
      </trkpt>
      <trkpt lat="42.788321" lon="0.332664">
        <ele>1882.3</ele>
        <time>2020-06-05T13:57:14Z</time>
      </trkpt>
      <trkpt lat="42.788283" lon="0.332544">
        <ele>1883.4</ele>
        <time>2020-06-05T13:57:23Z</time>
      </trkpt>
      <trkpt lat="42.788259" lon="0.332412">
        <ele>1886.6</ele>
        <time>2020-06-05T13:57:32Z</time>
      </trkpt>
      <trkpt lat="42.788232" lon="0.332284">
        <ele>1888.4</ele>
        <time>2020-06-05T13:57:41Z</time>
      </trkpt>
      <trkpt lat="42.788207" lon="0.332150">
        <ele>1891.1</ele>
        <time>2020-06-05T13:57:51Z</time>
      </trkpt>
      <trkpt lat="42.788198" lon="0.332023">
        <ele>1894.0</ele>
        <time>2020-06-05T13:58:02Z</time>
      </trkpt>
      <trkpt lat="42.788185" lon="0.331892">
        <ele>1895.7</ele>
        <time>2020-06-05T13:58:13Z</time>
      </trkpt>
      <trkpt lat="42.788172" lon="0.331772">
        <ele>1898.5</ele>
        <time>2020-06-05T13:58:23Z</time>
      </trkpt>
      <trkpt lat="42.788165" lon="0.331650">
        <ele>1900.6</ele>
        <time>2020-06-05T13:58:31Z</time>
      </trkpt>
      <trkpt lat="42.788154" lon="0.331522">
        <ele>1902.3</ele>
        <time>2020-06-05T13:58:39Z</time>
      </trkpt>
      <trkpt lat="42.788140" lon="0.331393">
        <ele>1903.1</ele>
        <time>2020-06-05T13:58:48Z</time>
      </trkpt>
      <trkpt lat="42.788129" lon="0.331262">
        <ele>1905.1</ele>
        <time>2020-06-05T13:58:57Z</time>
      </trkpt>
      <trkpt lat="42.788139" lon="0.331128">
        <ele>1905.0</ele>
        <time>2020-06-05T13:59:05Z</time>
      </trkpt>
      <trkpt lat="42.788137" lon="0.330992">
        <ele>1906.9</ele>
        <time>2020-06-05T13:59:13Z</time>
      </trkpt>
      <trkpt lat="42.788189" lon="0.330870">
        <ele>1907.7</ele>
        <time>2020-06-05T13:59:21Z</time>
      </trkpt>
      <trkpt lat="42.788221" lon="0.330753">
        <ele>1911.5</ele>
        <time>2020-06-05T13:59:31Z</time>
      </trkpt>
      <trkpt lat="42.788241" lon="0.330624">
        <ele>1914.1</ele>
        <time>2020-06-05T13:59:42Z</time>
      </trkpt>
      <trkpt lat="42.788249" lon="0.330504">
        <ele>1916.8</ele>
        <time>2020-06-05T13:59:51Z</time>
      </trkpt>
      <trkpt lat="42.788282" lon="0.330384">
        <ele>1919.4</ele>
        <time>2020-06-05T14:00:00Z</time>
      </trkpt>
      <trkpt lat="42.788320" lon="0.330266">
        <ele>1922.0</ele>
        <time>2020-06-05T14:00:09Z</time>
      </trkpt>
      <trkpt lat="42.788351" lon="0.330148">
        <ele>1924.8</ele>
        <time>2020-06-05T14:00:19Z</time>
      </trkpt>
      <trkpt lat="42.788389" lon="0.330032">
        <ele>1928.5</ele>
        <time>2020-06-05T14:00:31Z</time>
      </trkpt>
      <trkpt lat="42.788331" lon="0.329957">
        <ele>1931.4</ele>
        <time>2020-06-05T14:00:50Z</time>
      </trkpt>
      <trkpt lat="42.788256" lon="0.329987">
        <ele>1932.4</ele>
        <time>2020-06-05T14:01:25Z</time>
      </trkpt>
      <trkpt lat="42.788170" lon="0.329959">
        <ele>1934.1</ele>
        <time>2020-06-05T14:01:35Z</time>
      </trkpt>
      <trkpt lat="42.788083" lon="0.329924">
        <ele>1937.5</ele>
        <time>2020-06-05T14:01:45Z</time>
      </trkpt>
      <trkpt lat="42.788019" lon="0.329842">
        <ele>1939.4</ele>
        <time>2020-06-05T14:01:55Z</time>
      </trkpt>
      <trkpt lat="42.787942" lon="0.329811">
        <ele>1942.3</ele>
        <time>2020-06-05T14:02:07Z</time>
      </trkpt>
      <trkpt lat="42.787865" lon="0.329759">
        <ele>1944.2</ele>
        <time>2020-06-05T14:02:16Z</time>
      </trkpt>
      <trkpt lat="42.787795" lon="0.329690">
        <ele>1947.4</ele>
        <time>2020-06-05T14:02:29Z</time>
      </trkpt>
      <trkpt lat="42.787729" lon="0.329609">
        <ele>1951.2</ele>
        <time>2020-06-05T14:02:41Z</time>
      </trkpt>
      <trkpt lat="42.787645" lon="0.329576">
        <ele>1953.8</ele>
        <time>2020-06-05T14:02:52Z</time>
      </trkpt>
      <trkpt lat="42.787558" lon="0.329530">
        <ele>1956.4</ele>
        <time>2020-06-05T14:03:02Z</time>
      </trkpt>
      <trkpt lat="42.787464" lon="0.329499">
        <ele>1958.9</ele>
        <time>2020-06-05T14:03:12Z</time>
      </trkpt>
      <trkpt lat="42.787369" lon="0.329498">
        <ele>1960.9</ele>
        <time>2020-06-05T14:03:22Z</time>
      </trkpt>
      <trkpt lat="42.787287" lon="0.329460">
        <ele>1964.4</ele>
        <time>2020-06-05T14:03:35Z</time>
      </trkpt>
      <trkpt lat="42.787201" lon="0.329490">
        <ele>1967.0</ele>
        <time>2020-06-05T14:03:45Z</time>
      </trkpt>
      <trkpt lat="42.787113" lon="0.329498">
        <ele>1968.9</ele>
        <time>2020-06-05T14:03:57Z</time>
      </trkpt>
      <trkpt lat="42.787025" lon="0.329452">
        <ele>1971.4</ele>
        <time>2020-06-05T14:04:08Z</time>
      </trkpt>
      <trkpt lat="42.786935" lon="0.329434">
        <ele>1972.3</ele>
        <time>2020-06-05T14:04:17Z</time>
      </trkpt>
      <trkpt lat="42.786846" lon="0.329445">
        <ele>1975.2</ele>
        <time>2020-06-05T14:04:27Z</time>
      </trkpt>
      <trkpt lat="42.786760" lon="0.329486">
        <ele>1975.2</ele>
        <time>2020-06-05T14:04:36Z</time>
      </trkpt>
      <trkpt lat="42.786671" lon="0.329474">
        <ele>1976.7</ele>
        <time>2020-06-05T14:04:44Z</time>
      </trkpt>
      <trkpt lat="42.786577" lon="0.329449">
        <ele>1978.5</ele>
        <time>2020-06-05T14:04:52Z</time>
      </trkpt>
      <trkpt lat="42.786487" lon="0.329409">
        <ele>1981.0</ele>
        <time>2020-06-05T14:05:01Z</time>
      </trkpt>
      <trkpt lat="42.786400" lon="0.329348">
        <ele>1983.7</ele>
        <time>2020-06-05T14:05:11Z</time>
      </trkpt>
      <trkpt lat="42.786313" lon="0.329296">
        <ele>1985.5</ele>
        <time>2020-06-05T14:05:20Z</time>
      </trkpt>
      <trkpt lat="42.786224" lon="0.329243">
        <ele>1987.2</ele>
        <time>2020-06-05T14:05:29Z</time>
      </trkpt>
      <trkpt lat="42.786144" lon="0.329178">
        <ele>1989.1</ele>
        <time>2020-06-05T14:05:38Z</time>
      </trkpt>
      <trkpt lat="42.786068" lon="0.329107">
        <ele>1991.8</ele>
        <time>2020-06-05T14:05:48Z</time>
      </trkpt>
      <trkpt lat="42.785981" lon="0.329094">
        <ele>1994.5</ele>
        <time>2020-06-05T14:05:57Z</time>
      </trkpt>
      <trkpt lat="42.785886" lon="0.329094">
        <ele>1996.3</ele>
        <time>2020-06-05T14:06:06Z</time>
      </trkpt>
      <trkpt lat="42.785791" lon="0.329136">
        <ele>1997.0</ele>
        <time>2020-06-05T14:06:14Z</time>
      </trkpt>
      <trkpt lat="42.785697" lon="0.329178">
        <ele>1997.8</ele>
        <time>2020-06-05T14:06:22Z</time>
      </trkpt>
      <trkpt lat="42.785603" lon="0.329190">
        <ele>1998.8</ele>
        <time>2020-06-05T14:06:30Z</time>
      </trkpt>
      <trkpt lat="42.785504" lon="0.329204">
        <ele>1999.7</ele>
        <time>2020-06-05T14:06:39Z</time>
      </trkpt>
      <trkpt lat="42.785409" lon="0.329207">
        <ele>1999.7</ele>
        <time>2020-06-05T14:06:47Z</time>
      </trkpt>
      <trkpt lat="42.785308" lon="0.329205">
        <ele>2001.4</ele>
        <time>2020-06-05T14:06:55Z</time>
      </trkpt>
      <trkpt lat="42.785219" lon="0.329230">
        <ele>2003.2</ele>
        <time>2020-06-05T14:07:04Z</time>
      </trkpt>
      <trkpt lat="42.785128" lon="0.329206">
        <ele>2006.6</ele>
        <time>2020-06-05T14:07:14Z</time>
      </trkpt>
      <trkpt lat="42.785056" lon="0.329147">
        <ele>2008.4</ele>
        <time>2020-06-05T14:07:22Z</time>
      </trkpt>
      <trkpt lat="42.784977" lon="0.329096">
        <ele>2010.4</ele>
        <time>2020-06-05T14:07:30Z</time>
      </trkpt>
      <trkpt lat="42.784885" lon="0.329073">
        <ele>2013.2</ele>
        <time>2020-06-05T14:07:39Z</time>
      </trkpt>
      <trkpt lat="42.784795" lon="0.329071">
        <ele>2015.1</ele>
        <time>2020-06-05T14:07:52Z</time>
      </trkpt>
      <trkpt lat="42.784703" lon="0.329091">
        <ele>2016.0</ele>
        <time>2020-06-05T14:08:00Z</time>
      </trkpt>
      <trkpt lat="42.784604" lon="0.329097">
        <ele>2017.7</ele>
        <time>2020-06-05T14:08:09Z</time>
      </trkpt>
      <trkpt lat="42.784515" lon="0.329088">
        <ele>2021.3</ele>
        <time>2020-06-05T14:08:18Z</time>
      </trkpt>
      <trkpt lat="42.784431" lon="0.329069">
        <ele>2023.8</ele>
        <time>2020-06-05T14:08:28Z</time>
      </trkpt>
      <trkpt lat="42.784342" lon="0.329079">
        <ele>2027.6</ele>
        <time>2020-06-05T14:08:41Z</time>
      </trkpt>
      <trkpt lat="42.784266" lon="0.329021">
        <ele>2031.1</ele>
        <time>2020-06-05T14:08:51Z</time>
      </trkpt>
      <trkpt lat="42.784178" lon="0.328988">
        <ele>2034.8</ele>
        <time>2020-06-05T14:09:01Z</time>
      </trkpt>
      <trkpt lat="42.784092" lon="0.328948">
        <ele>2036.6</ele>
        <time>2020-06-05T14:09:10Z</time>
      </trkpt>
      <trkpt lat="42.784007" lon="0.328891">
        <ele>2039.2</ele>
        <time>2020-06-05T14:09:19Z</time>
      </trkpt>
      <trkpt lat="42.783917" lon="0.328852">
        <ele>2040.9</ele>
        <time>2020-06-05T14:09:28Z</time>
      </trkpt>
      <trkpt lat="42.783831" lon="0.328813">
        <ele>2043.8</ele>
        <time>2020-06-05T14:09:37Z</time>
      </trkpt>
      <trkpt lat="42.783746" lon="0.328766">
        <ele>2048.2</ele>
        <time>2020-06-05T14:09:47Z</time>
      </trkpt>
      <trkpt lat="42.783666" lon="0.328716">
        <ele>2051.6</ele>
        <time>2020-06-05T14:09:57Z</time>
      </trkpt>
      <trkpt lat="42.783575" lon="0.328667">
        <ele>2055.4</ele>
        <time>2020-06-05T14:10:09Z</time>
      </trkpt>
      <trkpt lat="42.783490" lon="0.328622">
        <ele>2058.0</ele>
        <time>2020-06-05T14:10:20Z</time>
      </trkpt>
      <trkpt lat="42.783401" lon="0.328575">
        <ele>2060.8</ele>
        <time>2020-06-05T14:10:30Z</time>
      </trkpt>
      <trkpt lat="42.783311" lon="0.328542">
        <ele>2063.4</ele>
        <time>2020-06-05T14:10:40Z</time>
      </trkpt>
      <trkpt lat="42.783222" lon="0.328492">
        <ele>2067.2</ele>
        <time>2020-06-05T14:10:51Z</time>
      </trkpt>
      <trkpt lat="42.783136" lon="0.328456">
        <ele>2070.9</ele>
        <time>2020-06-05T14:11:03Z</time>
      </trkpt>
      <trkpt lat="42.783040" lon="0.328450">
        <ele>2073.7</ele>
        <time>2020-06-05T14:11:15Z</time>
      </trkpt>
      <trkpt lat="42.782959" lon="0.328442">
        <ele>2077.3</ele>
        <time>2020-06-05T14:11:27Z</time>
      </trkpt>
      <trkpt lat="42.782871" lon="0.328420">
        <ele>2080.1</ele>
        <time>2020-06-05T14:11:39Z</time>
      </trkpt>
      <trkpt lat="42.782778" lon="0.328393">
        <ele>2083.1</ele>
        <time>2020-06-05T14:11:50Z</time>
      </trkpt>
      <trkpt lat="42.782731" lon="0.328293">
        <ele>2085.9</ele>
        <time>2020-06-05T14:12:01Z</time>
      </trkpt>
      <trkpt lat="42.782686" lon="0.328209">
        <ele>2088.8</ele>
        <time>2020-06-05T14:12:13Z</time>
      </trkpt>
      <trkpt lat="42.782614" lon="0.328128">
        <ele>2092.3</ele>
        <time>2020-06-05T14:12:24Z</time>
      </trkpt>
      <trkpt lat="42.782529" lon="0.328075">
        <ele>2094.3</ele>
        <time>2020-06-05T14:12:33Z</time>
      </trkpt>
      <trkpt lat="42.782445" lon="0.328019">
        <ele>2094.3</ele>
        <time>2020-06-05T14:12:41Z</time>
      </trkpt>
      <trkpt lat="42.782351" lon="0.327987">
        <ele>2094.2</ele>
        <time>2020-06-05T14:12:49Z</time>
      </trkpt>
      <trkpt lat="42.782260" lon="0.327983">
        <ele>2094.2</ele>
        <time>2020-06-05T14:12:56Z</time>
      </trkpt>
      <trkpt lat="42.782170" lon="0.328008">
        <ele>2095.2</ele>
        <time>2020-06-05T14:13:03Z</time>
      </trkpt>
      <trkpt lat="42.782089" lon="0.328047">
        <ele>2097.0</ele>
        <time>2020-06-05T14:13:11Z</time>
      </trkpt>
      <trkpt lat="42.782009" lon="0.328098">
        <ele>2098.6</ele>
        <time>2020-06-05T14:13:19Z</time>
      </trkpt>
      <trkpt lat="42.781920" lon="0.328115">
        <ele>2099.5</ele>
        <time>2020-06-05T14:13:27Z</time>
      </trkpt>
      <trkpt lat="42.781826" lon="0.328135">
        <ele>2100.5</ele>
        <time>2020-06-05T14:13:35Z</time>
      </trkpt>
      <trkpt lat="42.781737" lon="0.328174">
        <ele>2102.3</ele>
        <time>2020-06-05T14:13:43Z</time>
      </trkpt>
      <trkpt lat="42.781653" lon="0.328224">
        <ele>2104.0</ele>
        <time>2020-06-05T14:13:52Z</time>
      </trkpt>
      <trkpt lat="42.781572" lon="0.328281">
        <ele>2106.6</ele>
        <time>2020-06-05T14:14:01Z</time>
      </trkpt>
      <trkpt lat="42.781482" lon="0.328325">
        <ele>2109.5</ele>
        <time>2020-06-05T14:14:10Z</time>
      </trkpt>
      <trkpt lat="42.781392" lon="0.328380">
        <ele>2112.5</ele>
        <time>2020-06-05T14:14:19Z</time>
      </trkpt>
      <trkpt lat="42.781314" lon="0.328438">
        <ele>2114.2</ele>
        <time>2020-06-05T14:14:29Z</time>
      </trkpt>
      <trkpt lat="42.781264" lon="0.328533">
        <ele>2116.7</ele>
        <time>2020-06-05T14:14:39Z</time>
      </trkpt>
      <trkpt lat="42.781190" lon="0.328600">
        <ele>2119.7</ele>
        <time>2020-06-05T14:14:50Z</time>
      </trkpt>
      <trkpt lat="42.781135" lon="0.328696">
        <ele>2122.4</ele>
        <time>2020-06-05T14:15:00Z</time>
      </trkpt>
      <trkpt lat="42.781060" lon="0.328753">
        <ele>2124.8</ele>
        <time>2020-06-05T14:15:31Z</time>
      </trkpt>
      <trkpt lat="42.781009" lon="0.328641">
        <ele>2128.6</ele>
        <time>2020-06-05T14:15:40Z</time>
      </trkpt>
      <trkpt lat="42.780958" lon="0.328533">
        <ele>2132.2</ele>
        <time>2020-06-05T14:15:49Z</time>
      </trkpt>
      <trkpt lat="42.780911" lon="0.328424">
        <ele>2133.7</ele>
        <time>2020-06-05T14:15:58Z</time>
      </trkpt>
      <trkpt lat="42.780909" lon="0.328318">
        <ele>2135.3</ele>
        <time>2020-06-05T14:16:06Z</time>
      </trkpt>
      <trkpt lat="42.780892" lon="0.328204">
        <ele>2136.3</ele>
        <time>2020-06-05T14:16:15Z</time>
      </trkpt>
      <trkpt lat="42.780876" lon="0.328095">
        <ele>2138.8</ele>
        <time>2020-06-05T14:16:26Z</time>
      </trkpt>
      <trkpt lat="42.780844" lon="0.327979">
        <ele>2141.4</ele>
        <time>2020-06-05T14:16:36Z</time>
      </trkpt>
      <trkpt lat="42.780814" lon="0.327864">
        <ele>2143.4</ele>
        <time>2020-06-05T14:16:45Z</time>
      </trkpt>
      <trkpt lat="42.780806" lon="0.327761">
        <ele>2147.6</ele>
        <time>2020-06-05T14:16:58Z</time>
      </trkpt>
      <trkpt lat="42.780803" lon="0.327630">
        <ele>2150.4</ele>
        <time>2020-06-05T14:17:10Z</time>
      </trkpt>
      <trkpt lat="42.780793" lon="0.327505">
        <ele>2156.2</ele>
        <time>2020-06-05T14:17:32Z</time>
      </trkpt>
      <trkpt lat="42.780757" lon="0.327410">
        <ele>2162.4</ele>
        <time>2020-06-05T14:18:12Z</time>
      </trkpt>
      <trkpt lat="42.780713" lon="0.327373">
        <ele>2165.5</ele>
        <time>2020-06-05T14:18:36Z</time>
      </trkpt>
      <trkpt lat="42.780698" lon="0.327304">
        <ele>2173.1</ele>
        <time>2020-06-05T14:19:02Z</time>
      </trkpt>
      <trkpt lat="42.780637" lon="0.327241">
        <ele>2141.0</ele>
        <time>2020-06-05T14:24:07Z</time>
      </trkpt>
      <trkpt lat="42.780542" lon="0.327217">
        <ele>2144.0</ele>
        <time>2020-06-05T14:24:18Z</time>
      </trkpt>
      <trkpt lat="42.780382" lon="0.327204">
        <ele>2169.5</ele>
        <time>2020-06-05T14:24:37Z</time>
      </trkpt>
      <trkpt lat="42.780285" lon="0.327186">
        <ele>2171.8</ele>
        <time>2020-06-05T14:24:46Z</time>
      </trkpt>
      <trkpt lat="42.780165" lon="0.327206">
        <ele>2171.8</ele>
        <time>2020-06-05T14:29:12Z</time>
      </trkpt>
      <trkpt lat="42.780067" lon="0.327209">
        <ele>2171.9</ele>
        <time>2020-06-05T14:29:24Z</time>
      </trkpt>
      <trkpt lat="42.779975" lon="0.327213">
        <ele>2171.9</ele>
        <time>2020-06-05T14:29:38Z</time>
      </trkpt>
      <trkpt lat="42.779887" lon="0.327248">
        <ele>2171.9</ele>
        <time>2020-06-05T14:29:55Z</time>
      </trkpt>
      <trkpt lat="42.779797" lon="0.327273">
        <ele>2171.9</ele>
        <time>2020-06-05T14:30:04Z</time>
      </trkpt>
      <trkpt lat="42.779701" lon="0.327303">
        <ele>2171.9</ele>
        <time>2020-06-05T14:30:14Z</time>
      </trkpt>
      <trkpt lat="42.779605" lon="0.327341">
        <ele>2171.9</ele>
        <time>2020-06-05T14:30:24Z</time>
      </trkpt>
      <trkpt lat="42.779512" lon="0.327342">
        <ele>2170.1</ele>
        <time>2020-06-05T14:30:35Z</time>
      </trkpt>
      <trkpt lat="42.779415" lon="0.327371">
        <ele>2170.1</ele>
        <time>2020-06-05T14:30:45Z</time>
      </trkpt>
      <trkpt lat="42.779325" lon="0.327381">
        <ele>2169.2</ele>
        <time>2020-06-05T14:30:55Z</time>
      </trkpt>
      <trkpt lat="42.779247" lon="0.327434">
        <ele>2166.8</ele>
        <time>2020-06-05T14:31:06Z</time>
      </trkpt>
      <trkpt lat="42.779157" lon="0.327479">
        <ele>2166.8</ele>
        <time>2020-06-05T14:31:17Z</time>
      </trkpt>
      <trkpt lat="42.779071" lon="0.327527">
        <ele>2166.8</ele>
        <time>2020-06-05T14:31:28Z</time>
      </trkpt>
      <trkpt lat="42.778978" lon="0.327566">
        <ele>2166.8</ele>
        <time>2020-06-05T14:31:39Z</time>
      </trkpt>
      <trkpt lat="42.778900" lon="0.327635">
        <ele>2167.6</ele>
        <time>2020-06-05T14:31:48Z</time>
      </trkpt>
      <trkpt lat="42.778805" lon="0.327654">
        <ele>2168.5</ele>
        <time>2020-06-05T14:31:57Z</time>
      </trkpt>
      <trkpt lat="42.778717" lon="0.327633">
        <ele>2168.6</ele>
        <time>2020-06-05T14:32:06Z</time>
      </trkpt>
      <trkpt lat="42.778624" lon="0.327637">
        <ele>2169.4</ele>
        <time>2020-06-05T14:32:16Z</time>
      </trkpt>
      <trkpt lat="42.778529" lon="0.327636">
        <ele>2169.4</ele>
        <time>2020-06-05T14:32:25Z</time>
      </trkpt>
      <trkpt lat="42.778429" lon="0.327643">
        <ele>2169.4</ele>
        <time>2020-06-05T14:32:34Z</time>
      </trkpt>
      <trkpt lat="42.778335" lon="0.327635">
        <ele>2170.2</ele>
        <time>2020-06-05T14:32:42Z</time>
      </trkpt>
      <trkpt lat="42.778244" lon="0.327643">
        <ele>2171.0</ele>
        <time>2020-06-05T14:32:50Z</time>
      </trkpt>
      <trkpt lat="42.778152" lon="0.327653">
        <ele>2172.0</ele>
        <time>2020-06-05T14:32:58Z</time>
      </trkpt>
      <trkpt lat="42.778050" lon="0.327663">
        <ele>2172.0</ele>
        <time>2020-06-05T14:33:07Z</time>
      </trkpt>
      <trkpt lat="42.777954" lon="0.327693">
        <ele>2172.9</ele>
        <time>2020-06-05T14:33:16Z</time>
      </trkpt>
      <trkpt lat="42.777860" lon="0.327722">
        <ele>2172.9</ele>
        <time>2020-06-05T14:33:25Z</time>
      </trkpt>
      <trkpt lat="42.777775" lon="0.327776">
        <ele>2172.9</ele>
        <time>2020-06-05T14:33:34Z</time>
      </trkpt>
      <trkpt lat="42.777682" lon="0.327826">
        <ele>2172.9</ele>
        <time>2020-06-05T14:33:44Z</time>
      </trkpt>
      <trkpt lat="42.777583" lon="0.327852">
        <ele>2175.7</ele>
        <time>2020-06-05T14:33:54Z</time>
      </trkpt>
      <trkpt lat="42.777492" lon="0.327893">
        <ele>2175.8</ele>
        <time>2020-06-05T14:34:06Z</time>
      </trkpt>
      <trkpt lat="42.777426" lon="0.327968">
        <ele>2174.0</ele>
        <time>2020-06-05T14:34:19Z</time>
      </trkpt>
      <trkpt lat="42.777348" lon="0.328039">
        <ele>2171.4</ele>
        <time>2020-06-05T14:34:33Z</time>
      </trkpt>
      <trkpt lat="42.777310" lon="0.328145">
        <ele>2169.0</ele>
        <time>2020-06-05T14:34:49Z</time>
      </trkpt>
      <trkpt lat="42.777249" lon="0.328236">
        <ele>2167.6</ele>
        <time>2020-06-05T14:35:13Z</time>
      </trkpt>
      <trkpt lat="42.777193" lon="0.328335">
        <ele>2166.1</ele>
        <time>2020-06-05T14:35:26Z</time>
      </trkpt>
      <trkpt lat="42.777144" lon="0.328444">
        <ele>2164.5</ele>
        <time>2020-06-05T14:35:39Z</time>
      </trkpt>
      <trkpt lat="42.777093" lon="0.328551">
        <ele>2163.7</ele>
        <time>2020-06-05T14:35:49Z</time>
      </trkpt>
      <trkpt lat="42.777028" lon="0.328639">
        <ele>2162.0</ele>
        <time>2020-06-05T14:36:01Z</time>
      </trkpt>
      <trkpt lat="42.776944" lon="0.328717">
        <ele>2161.3</ele>
        <time>2020-06-05T14:36:11Z</time>
      </trkpt>
      <trkpt lat="42.776864" lon="0.328806">
        <ele>2161.3</ele>
        <time>2020-06-05T14:36:21Z</time>
      </trkpt>
      <trkpt lat="42.776793" lon="0.328885">
        <ele>2159.7</ele>
        <time>2020-06-05T14:36:32Z</time>
      </trkpt>
      <trkpt lat="42.776714" lon="0.328955">
        <ele>2158.2</ele>
        <time>2020-06-05T14:36:44Z</time>
      </trkpt>
      <trkpt lat="42.776634" lon="0.329023">
        <ele>2156.4</ele>
        <time>2020-06-05T14:36:55Z</time>
      </trkpt>
      <trkpt lat="42.776546" lon="0.329067">
        <ele>2155.5</ele>
        <time>2020-06-05T14:37:06Z</time>
      </trkpt>
      <trkpt lat="42.776457" lon="0.329080">
        <ele>2155.6</ele>
        <time>2020-06-05T14:37:16Z</time>
      </trkpt>
      <trkpt lat="42.776375" lon="0.329115">
        <ele>2155.6</ele>
        <time>2020-06-05T14:37:26Z</time>
      </trkpt>
      <trkpt lat="42.776285" lon="0.329127">
        <ele>2155.7</ele>
        <time>2020-06-05T14:37:37Z</time>
      </trkpt>
      <trkpt lat="42.776193" lon="0.329147">
        <ele>2154.9</ele>
        <time>2020-06-05T14:37:48Z</time>
      </trkpt>
      <trkpt lat="42.776100" lon="0.329177">
        <ele>2153.2</ele>
        <time>2020-06-05T14:38:00Z</time>
      </trkpt>
      <trkpt lat="42.776003" lon="0.329211">
        <ele>2150.7</ele>
        <time>2020-06-05T14:38:14Z</time>
      </trkpt>
      <trkpt lat="42.775918" lon="0.329252">
        <ele>2147.5</ele>
        <time>2020-06-05T14:38:30Z</time>
      </trkpt>
      <trkpt lat="42.775824" lon="0.329303">
        <ele>2149.9</ele>
        <time>2020-06-05T14:38:42Z</time>
      </trkpt>
      <trkpt lat="42.775756" lon="0.329389">
        <ele>2149.9</ele>
        <time>2020-06-05T14:38:54Z</time>
      </trkpt>
      <trkpt lat="42.775677" lon="0.329466">
        <ele>2150.0</ele>
        <time>2020-06-05T14:39:04Z</time>
      </trkpt>
      <trkpt lat="42.775593" lon="0.329512">
        <ele>2149.2</ele>
        <time>2020-06-05T14:39:17Z</time>
      </trkpt>
      <trkpt lat="42.775502" lon="0.329545">
        <ele>2149.3</ele>
        <time>2020-06-05T14:39:28Z</time>
      </trkpt>
      <trkpt lat="42.775419" lon="0.329603">
        <ele>2149.3</ele>
        <time>2020-06-05T14:39:38Z</time>
      </trkpt>
      <trkpt lat="42.775340" lon="0.329681">
        <ele>2149.4</ele>
        <time>2020-06-05T14:39:49Z</time>
      </trkpt>
      <trkpt lat="42.775263" lon="0.329755">
        <ele>2148.7</ele>
        <time>2020-06-05T14:40:00Z</time>
      </trkpt>
      <trkpt lat="42.775177" lon="0.329801">
        <ele>2147.0</ele>
        <time>2020-06-05T14:40:11Z</time>
      </trkpt>
      <trkpt lat="42.775086" lon="0.329846">
        <ele>2147.0</ele>
        <time>2020-06-05T14:40:22Z</time>
      </trkpt>
      <trkpt lat="42.775013" lon="0.329916">
        <ele>2147.0</ele>
        <time>2020-06-05T14:40:31Z</time>
      </trkpt>
      <trkpt lat="42.774942" lon="0.329999">
        <ele>2147.0</ele>
        <time>2020-06-05T14:40:39Z</time>
      </trkpt>
      <trkpt lat="42.774875" lon="0.330089">
        <ele>2147.1</ele>
        <time>2020-06-05T14:40:49Z</time>
      </trkpt>
      <trkpt lat="42.774812" lon="0.330189">
        <ele>2145.4</ele>
        <time>2020-06-05T14:41:02Z</time>
      </trkpt>
      <trkpt lat="42.774754" lon="0.330280">
        <ele>2144.8</ele>
        <time>2020-06-05T14:41:15Z</time>
      </trkpt>
      <trkpt lat="42.774721" lon="0.330392">
        <ele>2144.1</ele>
        <time>2020-06-05T14:41:26Z</time>
      </trkpt>
      <trkpt lat="42.774636" lon="0.330468">
        <ele>2141.0</ele>
        <time>2020-06-05T14:41:44Z</time>
      </trkpt>
      <trkpt lat="42.774575" lon="0.330570">
        <ele>2138.3</ele>
        <time>2020-06-05T14:42:00Z</time>
      </trkpt>
      <trkpt lat="42.774513" lon="0.330651">
        <ele>2135.8</ele>
        <time>2020-06-05T14:42:14Z</time>
      </trkpt>
      <trkpt lat="42.774446" lon="0.330764">
        <ele>2134.1</ele>
        <time>2020-06-05T14:42:27Z</time>
      </trkpt>
      <trkpt lat="42.774440" lon="0.330890">
        <ele>2133.4</ele>
        <time>2020-06-05T14:42:39Z</time>
      </trkpt>
      <trkpt lat="42.774396" lon="0.330988">
        <ele>2130.8</ele>
        <time>2020-06-05T14:42:52Z</time>
      </trkpt>
      <trkpt lat="42.774313" lon="0.330973">
        <ele>2129.8</ele>
        <time>2020-06-05T14:43:10Z</time>
      </trkpt>
      <trkpt lat="42.774226" lon="0.331015">
        <ele>2129.1</ele>
        <time>2020-06-05T14:43:27Z</time>
      </trkpt>
      <trkpt lat="42.774138" lon="0.331037">
        <ele>2129.1</ele>
        <time>2020-06-05T14:43:38Z</time>
      </trkpt>
      <trkpt lat="42.774054" lon="0.330989">
        <ele>2128.3</ele>
        <time>2020-06-05T14:43:50Z</time>
      </trkpt>
      <trkpt lat="42.773948" lon="0.330982">
        <ele>2127.4</ele>
        <time>2020-06-05T14:44:02Z</time>
      </trkpt>
      <trkpt lat="42.773855" lon="0.331015">
        <ele>2127.5</ele>
        <time>2020-06-05T14:44:14Z</time>
      </trkpt>
      <trkpt lat="42.773820" lon="0.331111">
        <ele>2127.6</ele>
        <time>2020-06-05T14:44:31Z</time>
      </trkpt>
      <trkpt lat="42.773743" lon="0.331173">
        <ele>2125.0</ele>
        <time>2020-06-05T14:44:47Z</time>
      </trkpt>
      <trkpt lat="42.773673" lon="0.331143">
        <ele>2121.7</ele>
        <time>2020-06-05T14:45:09Z</time>
      </trkpt>
      <trkpt lat="42.773582" lon="0.331124">
        <ele>2118.2</ele>
        <time>2020-06-05T14:45:26Z</time>
      </trkpt>
      <trkpt lat="42.773488" lon="0.331129">
        <ele>2116.6</ele>
        <time>2020-06-05T14:45:40Z</time>
      </trkpt>
      <trkpt lat="42.773420" lon="0.331100">
        <ele>2113.0</ele>
        <time>2020-06-05T14:46:02Z</time>
      </trkpt>
      <trkpt lat="42.773338" lon="0.331081">
        <ele>2109.1</ele>
        <time>2020-06-05T14:46:23Z</time>
      </trkpt>
      <trkpt lat="42.773260" lon="0.331071">
        <ele>2108.1</ele>
        <time>2020-06-05T14:46:43Z</time>
      </trkpt>
      <trkpt lat="42.773193" lon="0.331161">
        <ele>2108.2</ele>
        <time>2020-06-05T14:46:59Z</time>
      </trkpt>
      <trkpt lat="42.773102" lon="0.331250">
        <ele>2107.4</ele>
        <time>2020-06-05T14:47:10Z</time>
      </trkpt>
      <trkpt lat="42.773042" lon="0.331354">
        <ele>2105.9</ele>
        <time>2020-06-05T14:47:23Z</time>
      </trkpt>
      <trkpt lat="42.772974" lon="0.331456">
        <ele>2104.1</ele>
        <time>2020-06-05T14:47:39Z</time>
      </trkpt>
      <trkpt lat="42.772911" lon="0.331506">
        <ele>2100.1</ele>
        <time>2020-06-05T14:47:59Z</time>
      </trkpt>
      <trkpt lat="42.772815" lon="0.331516">
        <ele>2097.4</ele>
        <time>2020-06-05T14:48:19Z</time>
      </trkpt>
      <trkpt lat="42.772718" lon="0.331475">
        <ele>2094.7</ele>
        <time>2020-06-05T14:48:35Z</time>
      </trkpt>
      <trkpt lat="42.772630" lon="0.331477">
        <ele>2091.2</ele>
        <time>2020-06-05T14:48:51Z</time>
      </trkpt>
      <trkpt lat="42.772540" lon="0.331483">
        <ele>2092.6</ele>
        <time>2020-06-05T14:49:01Z</time>
      </trkpt>
      <trkpt lat="42.772443" lon="0.331520">
        <ele>2092.7</ele>
        <time>2020-06-05T14:49:10Z</time>
      </trkpt>
      <trkpt lat="42.772352" lon="0.331534">
        <ele>2092.8</ele>
        <time>2020-06-05T14:49:18Z</time>
      </trkpt>
      <trkpt lat="42.772260" lon="0.331552">
        <ele>2092.8</ele>
        <time>2020-06-05T14:49:26Z</time>
      </trkpt>
      <trkpt lat="42.772171" lon="0.331583">
        <ele>2092.7</ele>
        <time>2020-06-05T14:49:34Z</time>
      </trkpt>
      <trkpt lat="42.772076" lon="0.331600">
        <ele>2092.7</ele>
        <time>2020-06-05T14:49:41Z</time>
      </trkpt>
      <trkpt lat="42.771975" lon="0.331629">
        <ele>2093.5</ele>
        <time>2020-06-05T14:49:49Z</time>
      </trkpt>
      <trkpt lat="42.771877" lon="0.331671">
        <ele>2094.4</ele>
        <time>2020-06-05T14:49:57Z</time>
      </trkpt>
      <trkpt lat="42.771799" lon="0.331741">
        <ele>2096.3</ele>
        <time>2020-06-05T14:50:05Z</time>
      </trkpt>
      <trkpt lat="42.771709" lon="0.331768">
        <ele>2098.7</ele>
        <time>2020-06-05T14:50:14Z</time>
      </trkpt>
      <trkpt lat="42.771619" lon="0.331808">
        <ele>2098.7</ele>
        <time>2020-06-05T14:50:23Z</time>
      </trkpt>
      <trkpt lat="42.771521" lon="0.331851">
        <ele>2100.4</ele>
        <time>2020-06-05T14:50:32Z</time>
      </trkpt>
      <trkpt lat="42.771435" lon="0.331904">
        <ele>2102.2</ele>
        <time>2020-06-05T14:50:40Z</time>
      </trkpt>
      <trkpt lat="42.771339" lon="0.331924">
        <ele>2103.1</ele>
        <time>2020-06-05T14:50:48Z</time>
      </trkpt>
      <trkpt lat="42.771252" lon="0.331985">
        <ele>2104.9</ele>
        <time>2020-06-05T14:50:56Z</time>
      </trkpt>
      <trkpt lat="42.771160" lon="0.332049">
        <ele>2105.8</ele>
        <time>2020-06-05T14:51:04Z</time>
      </trkpt>
      <trkpt lat="42.771064" lon="0.332107">
        <ele>2107.8</ele>
        <time>2020-06-05T14:51:12Z</time>
      </trkpt>
      <trkpt lat="42.770971" lon="0.332153">
        <ele>2109.5</ele>
        <time>2020-06-05T14:51:19Z</time>
      </trkpt>
      <trkpt lat="42.770885" lon="0.332192">
        <ele>2109.6</ele>
        <time>2020-06-05T14:51:26Z</time>
      </trkpt>
      <trkpt lat="42.770791" lon="0.332237">
        <ele>2111.4</ele>
        <time>2020-06-05T14:51:34Z</time>
      </trkpt>
      <trkpt lat="42.770709" lon="0.332288">
        <ele>2111.4</ele>
        <time>2020-06-05T14:51:41Z</time>
      </trkpt>
      <trkpt lat="42.770618" lon="0.332320">
        <ele>2113.2</ele>
        <time>2020-06-05T14:51:48Z</time>
      </trkpt>
      <trkpt lat="42.770519" lon="0.332339">
        <ele>2114.0</ele>
        <time>2020-06-05T14:51:56Z</time>
      </trkpt>
      <trkpt lat="42.770439" lon="0.332403">
        <ele>2114.9</ele>
        <time>2020-06-05T14:52:04Z</time>
      </trkpt>
      <trkpt lat="42.770357" lon="0.332465">
        <ele>2115.8</ele>
        <time>2020-06-05T14:52:12Z</time>
      </trkpt>
      <trkpt lat="42.770271" lon="0.332505">
        <ele>2116.6</ele>
        <time>2020-06-05T14:52:20Z</time>
      </trkpt>
      <trkpt lat="42.770182" lon="0.332549">
        <ele>2118.3</ele>
        <time>2020-06-05T14:52:28Z</time>
      </trkpt>
      <trkpt lat="42.770085" lon="0.332588">
        <ele>2119.2</ele>
        <time>2020-06-05T14:52:37Z</time>
      </trkpt>
      <trkpt lat="42.769999" lon="0.332635">
        <ele>2122.1</ele>
        <time>2020-06-05T14:52:46Z</time>
      </trkpt>
      <trkpt lat="42.769911" lon="0.332693">
        <ele>2123.9</ele>
        <time>2020-06-05T14:52:55Z</time>
      </trkpt>
      <trkpt lat="42.769807" lon="0.332744">
        <ele>2127.1</ele>
        <time>2020-06-05T14:53:04Z</time>
      </trkpt>
      <trkpt lat="42.769722" lon="0.332784">
        <ele>2129.0</ele>
        <time>2020-06-05T14:53:14Z</time>
      </trkpt>
      <trkpt lat="42.769634" lon="0.332833">
        <ele>2131.0</ele>
        <time>2020-06-05T14:53:23Z</time>
      </trkpt>
      <trkpt lat="42.769555" lon="0.332882">
        <ele>2132.4</ele>
        <time>2020-06-05T14:53:33Z</time>
      </trkpt>
      <trkpt lat="42.769471" lon="0.332957">
        <ele>2135.2</ele>
        <time>2020-06-05T14:53:42Z</time>
      </trkpt>
      <trkpt lat="42.769377" lon="0.332991">
        <ele>2136.1</ele>
        <time>2020-06-05T14:53:51Z</time>
      </trkpt>
      <trkpt lat="42.769284" lon="0.333013">
        <ele>2136.9</ele>
        <time>2020-06-05T14:54:00Z</time>
      </trkpt>
      <trkpt lat="42.769186" lon="0.333043">
        <ele>2138.7</ele>
        <time>2020-06-05T14:54:10Z</time>
      </trkpt>
      <trkpt lat="42.769094" lon="0.333069">
        <ele>2138.8</ele>
        <time>2020-06-05T14:54:18Z</time>
      </trkpt>
      <trkpt lat="42.769003" lon="0.333116">
        <ele>2139.6</ele>
        <time>2020-06-05T14:54:27Z</time>
      </trkpt>
      <trkpt lat="42.768915" lon="0.333137">
        <ele>2140.4</ele>
        <time>2020-06-05T14:54:35Z</time>
      </trkpt>
      <trkpt lat="42.768828" lon="0.333196">
        <ele>2141.6</ele>
        <time>2020-06-05T14:54:45Z</time>
      </trkpt>
      <trkpt lat="42.768749" lon="0.333282">
        <ele>2145.3</ele>
        <time>2020-06-05T14:54:54Z</time>
      </trkpt>
      <trkpt lat="42.768670" lon="0.333342">
        <ele>2146.3</ele>
        <time>2020-06-05T14:55:03Z</time>
      </trkpt>
      <trkpt lat="42.768581" lon="0.333382">
        <ele>2147.1</ele>
        <time>2020-06-05T14:55:20Z</time>
      </trkpt>
      <trkpt lat="42.768496" lon="0.333444">
        <ele>2148.1</ele>
        <time>2020-06-05T14:55:28Z</time>
      </trkpt>
      <trkpt lat="42.768422" lon="0.333530">
        <ele>2150.8</ele>
        <time>2020-06-05T14:55:37Z</time>
      </trkpt>
      <trkpt lat="42.768355" lon="0.333606">
        <ele>2151.9</ele>
        <time>2020-06-05T14:55:45Z</time>
      </trkpt>
      <trkpt lat="42.768286" lon="0.333689">
        <ele>2154.7</ele>
        <time>2020-06-05T14:55:53Z</time>
      </trkpt>
      <trkpt lat="42.768235" lon="0.333786">
        <ele>2156.4</ele>
        <time>2020-06-05T14:55:59Z</time>
      </trkpt>
      <trkpt lat="42.768153" lon="0.333851">
        <ele>2158.2</ele>
        <time>2020-06-05T14:56:07Z</time>
      </trkpt>
      <trkpt lat="42.768049" lon="0.333902">
        <ele>2160.7</ele>
        <time>2020-06-05T14:56:19Z</time>
      </trkpt>
      <trkpt lat="42.767954" lon="0.333916">
        <ele>2163.9</ele>
        <time>2020-06-05T14:56:34Z</time>
      </trkpt>
      <trkpt lat="42.767886" lon="0.333998">
        <ele>2169.2</ele>
        <time>2020-06-05T14:56:47Z</time>
      </trkpt>
      <trkpt lat="42.767791" lon="0.334073">
        <ele>2180.1</ele>
        <time>2020-06-05T14:57:03Z</time>
      </trkpt>
      <trkpt lat="42.767612" lon="0.334239">
        <ele>2184.4</ele>
        <time>2020-06-05T14:57:17Z</time>
      </trkpt>
      <trkpt lat="42.767479" lon="0.334523">
        <ele>2192.3</ele>
        <time>2020-06-05T14:57:31Z</time>
      </trkpt>
      <trkpt lat="42.767488" lon="0.334615">
        <ele>2195.5</ele>
        <time>2020-06-05T14:57:46Z</time>
      </trkpt>
      <trkpt lat="42.767551" lon="0.334735">
        <ele>2201.0</ele>
        <time>2020-06-05T14:57:58Z</time>
      </trkpt>
      <trkpt lat="42.767665" lon="0.334814">
        <ele>2207.4</ele>
        <time>2020-06-05T14:58:12Z</time>
      </trkpt>
      <trkpt lat="42.767750" lon="0.334897">
        <ele>2213.8</ele>
        <time>2020-06-05T14:58:27Z</time>
      </trkpt>
      <trkpt lat="42.767849" lon="0.334888">
        <ele>2216.6</ele>
        <time>2020-06-05T14:58:43Z</time>
      </trkpt>
      <trkpt lat="42.767904" lon="0.334929">
        <ele>2220.1</ele>
        <time>2020-06-05T14:58:59Z</time>
      </trkpt>
      <trkpt lat="42.767947" lon="0.335032">
        <ele>2226.5</ele>
        <time>2020-06-05T14:59:47Z</time>
      </trkpt>
      <trkpt lat="42.767908" lon="0.335108">
        <ele>2229.0</ele>
        <time>2020-06-05T14:59:57Z</time>
      </trkpt>
      <trkpt lat="42.767835" lon="0.335141">
        <ele>2214.1</ele>
        <time>2020-06-05T15:00:10Z</time>
      </trkpt>
      <trkpt lat="42.767739" lon="0.335181">
        <ele>2218.2</ele>
        <time>2020-06-05T15:00:21Z</time>
      </trkpt>
      <trkpt lat="42.767646" lon="0.335227">
        <ele>2217.8</ele>
        <time>2020-06-05T15:00:32Z</time>
      </trkpt>
      <trkpt lat="42.767563" lon="0.335308">
        <ele>2222.0</ele>
        <time>2020-06-05T15:00:49Z</time>
      </trkpt>
      <trkpt lat="42.767475" lon="0.335386">
        <ele>2224.9</ele>
        <time>2020-06-05T15:01:00Z</time>
      </trkpt>
      <trkpt lat="42.767392" lon="0.335346">
        <ele>2224.8</ele>
        <time>2020-06-05T15:01:25Z</time>
      </trkpt>
      <trkpt lat="42.767299" lon="0.335374">
        <ele>2227.5</ele>
        <time>2020-06-05T15:01:35Z</time>
      </trkpt>
      <trkpt lat="42.767198" lon="0.335416">
        <ele>2228.3</ele>
        <time>2020-06-05T15:01:46Z</time>
      </trkpt>
      <trkpt lat="42.767094" lon="0.335410">
        <ele>2231.1</ele>
        <time>2020-06-05T15:01:55Z</time>
      </trkpt>
      <trkpt lat="42.767007" lon="0.335443">
        <ele>2234.2</ele>
        <time>2020-06-05T15:02:05Z</time>
      </trkpt>
      <trkpt lat="42.766911" lon="0.335437">
        <ele>2235.9</ele>
        <time>2020-06-05T15:02:14Z</time>
      </trkpt>
      <trkpt lat="42.766818" lon="0.335420">
        <ele>2236.9</ele>
        <time>2020-06-05T15:02:24Z</time>
      </trkpt>
      <trkpt lat="42.766763" lon="0.335330">
        <ele>2241.5</ele>
        <time>2020-06-05T15:02:38Z</time>
      </trkpt>
      <trkpt lat="42.766679" lon="0.335330">
        <ele>2242.3</ele>
        <time>2020-06-05T15:02:48Z</time>
      </trkpt>
      <trkpt lat="42.766586" lon="0.335379">
        <ele>2244.2</ele>
        <time>2020-06-05T15:02:57Z</time>
      </trkpt>
      <trkpt lat="42.766490" lon="0.335424">
        <ele>2248.1</ele>
        <time>2020-06-05T15:03:06Z</time>
      </trkpt>
      <trkpt lat="42.766398" lon="0.335451">
        <ele>2250.9</ele>
        <time>2020-06-05T15:03:16Z</time>
      </trkpt>
      <trkpt lat="42.766302" lon="0.335432">
        <ele>2252.9</ele>
        <time>2020-06-05T15:03:26Z</time>
      </trkpt>
      <trkpt lat="42.766211" lon="0.335409">
        <ele>2254.9</ele>
        <time>2020-06-05T15:03:35Z</time>
      </trkpt>
      <trkpt lat="42.766119" lon="0.335366">
        <ele>2255.6</ele>
        <time>2020-06-05T15:03:45Z</time>
      </trkpt>
      <trkpt lat="42.766037" lon="0.335300">
        <ele>2256.7</ele>
        <time>2020-06-05T15:03:54Z</time>
      </trkpt>
      <trkpt lat="42.765985" lon="0.335210">
        <ele>2258.5</ele>
        <time>2020-06-05T15:04:03Z</time>
      </trkpt>
      <trkpt lat="42.765889" lon="0.335172">
        <ele>2260.4</ele>
        <time>2020-06-05T15:04:12Z</time>
      </trkpt>
      <trkpt lat="42.765797" lon="0.335134">
        <ele>2262.1</ele>
        <time>2020-06-05T15:04:21Z</time>
      </trkpt>
      <trkpt lat="42.765709" lon="0.335130">
        <ele>2262.0</ele>
        <time>2020-06-05T15:04:29Z</time>
      </trkpt>
      <trkpt lat="42.765611" lon="0.335127">
        <ele>2263.7</ele>
        <time>2020-06-05T15:04:38Z</time>
      </trkpt>
      <trkpt lat="42.765515" lon="0.335102">
        <ele>2265.4</ele>
        <time>2020-06-05T15:04:47Z</time>
      </trkpt>
      <trkpt lat="42.765427" lon="0.335069">
        <ele>2267.8</ele>
        <time>2020-06-05T15:04:57Z</time>
      </trkpt>
      <trkpt lat="42.765341" lon="0.335021">
        <ele>2269.7</ele>
        <time>2020-06-05T15:05:06Z</time>
      </trkpt>
      <trkpt lat="42.765244" lon="0.335015">
        <ele>2272.4</ele>
        <time>2020-06-05T15:05:16Z</time>
      </trkpt>
      <trkpt lat="42.765164" lon="0.334972">
        <ele>2274.4</ele>
        <time>2020-06-05T15:05:25Z</time>
      </trkpt>
      <trkpt lat="42.765078" lon="0.334906">
        <ele>2277.1</ele>
        <time>2020-06-05T15:05:35Z</time>
      </trkpt>
      <trkpt lat="42.764987" lon="0.334864">
        <ele>2278.9</ele>
        <time>2020-06-05T15:05:44Z</time>
      </trkpt>
      <trkpt lat="42.764903" lon="0.334812">
        <ele>2280.8</ele>
        <time>2020-06-05T15:05:53Z</time>
      </trkpt>
      <trkpt lat="42.764812" lon="0.334787">
        <ele>2285.9</ele>
        <time>2020-06-05T15:06:03Z</time>
      </trkpt>
      <trkpt lat="42.764724" lon="0.334765">
        <ele>2285.9</ele>
        <time>2020-06-05T15:06:12Z</time>
      </trkpt>
      <trkpt lat="42.764636" lon="0.334710">
        <ele>2286.0</ele>
        <time>2020-06-05T15:06:24Z</time>
      </trkpt>
      <trkpt lat="42.764554" lon="0.334732">
        <ele>2283.8</ele>
        <time>2020-06-05T15:06:38Z</time>
      </trkpt>
      <trkpt lat="42.764462" lon="0.334720">
        <ele>2283.8</ele>
        <time>2020-06-05T15:06:46Z</time>
      </trkpt>
      <trkpt lat="42.764359" lon="0.334700">
        <ele>2283.8</ele>
        <time>2020-06-05T15:06:55Z</time>
      </trkpt>
      <trkpt lat="42.764262" lon="0.334702">
        <ele>2283.9</ele>
        <time>2020-06-05T15:07:08Z</time>
      </trkpt>
      <trkpt lat="42.764178" lon="0.334667">
        <ele>2283.9</ele>
        <time>2020-06-05T15:07:16Z</time>
      </trkpt>
      <trkpt lat="42.764086" lon="0.334644">
        <ele>2283.9</ele>
        <time>2020-06-05T15:07:24Z</time>
      </trkpt>
      <trkpt lat="42.764004" lon="0.334604">
        <ele>2283.9</ele>
        <time>2020-06-05T15:07:31Z</time>
      </trkpt>
      <trkpt lat="42.763925" lon="0.334543">
        <ele>2283.9</ele>
        <time>2020-06-05T15:07:38Z</time>
      </trkpt>
      <trkpt lat="42.763848" lon="0.334480">
        <ele>2285.7</ele>
        <time>2020-06-05T15:07:45Z</time>
      </trkpt>
      <trkpt lat="42.763770" lon="0.334441">
        <ele>2286.6</ele>
        <time>2020-06-05T15:07:52Z</time>
      </trkpt>
      <trkpt lat="42.763678" lon="0.334435">
        <ele>2286.6</ele>
        <time>2020-06-05T15:07:59Z</time>
      </trkpt>
      <trkpt lat="42.763581" lon="0.334427">
        <ele>2287.4</ele>
        <time>2020-06-05T15:08:06Z</time>
      </trkpt>
      <trkpt lat="42.763487" lon="0.334435">
        <ele>2288.1</ele>
        <time>2020-06-05T15:08:13Z</time>
      </trkpt>
      <trkpt lat="42.763396" lon="0.334440">
        <ele>2289.3</ele>
        <time>2020-06-05T15:08:20Z</time>
      </trkpt>
      <trkpt lat="42.763304" lon="0.334433">
        <ele>2290.1</ele>
        <time>2020-06-05T15:08:27Z</time>
      </trkpt>
      <trkpt lat="42.763207" lon="0.334438">
        <ele>2290.9</ele>
        <time>2020-06-05T15:08:34Z</time>
      </trkpt>
      <trkpt lat="42.763119" lon="0.334466">
        <ele>2292.8</ele>
        <time>2020-06-05T15:08:41Z</time>
      </trkpt>
      <trkpt lat="42.763028" lon="0.334518">
        <ele>2293.8</ele>
        <time>2020-06-05T15:08:48Z</time>
      </trkpt>
      <trkpt lat="42.762923" lon="0.334563">
        <ele>2294.7</ele>
        <time>2020-06-05T15:08:55Z</time>
      </trkpt>
      <trkpt lat="42.762830" lon="0.334611">
        <ele>2295.6</ele>
        <time>2020-06-05T15:09:02Z</time>
      </trkpt>
      <trkpt lat="42.762736" lon="0.334641">
        <ele>2297.3</ele>
        <time>2020-06-05T15:09:09Z</time>
      </trkpt>
      <trkpt lat="42.762636" lon="0.334698">
        <ele>2299.3</ele>
        <time>2020-06-05T15:09:17Z</time>
      </trkpt>
      <trkpt lat="42.762537" lon="0.334737">
        <ele>2300.1</ele>
        <time>2020-06-05T15:09:25Z</time>
      </trkpt>
      <trkpt lat="42.762434" lon="0.334762">
        <ele>2302.9</ele>
        <time>2020-06-05T15:09:34Z</time>
      </trkpt>
      <trkpt lat="42.762347" lon="0.334798">
        <ele>2304.5</ele>
        <time>2020-06-05T15:09:42Z</time>
      </trkpt>
      <trkpt lat="42.762258" lon="0.334820">
        <ele>2307.1</ele>
        <time>2020-06-05T15:09:50Z</time>
      </trkpt>
      <trkpt lat="42.762162" lon="0.334850">
        <ele>2308.0</ele>
        <time>2020-06-05T15:09:58Z</time>
      </trkpt>
      <trkpt lat="42.762068" lon="0.334868">
        <ele>2309.9</ele>
        <time>2020-06-05T15:10:06Z</time>
      </trkpt>
      <trkpt lat="42.761978" lon="0.334901">
        <ele>2311.6</ele>
        <time>2020-06-05T15:10:14Z</time>
      </trkpt>
      <trkpt lat="42.761886" lon="0.334923">
        <ele>2313.8</ele>
        <time>2020-06-05T15:10:23Z</time>
      </trkpt>
      <trkpt lat="42.761792" lon="0.334926">
        <ele>2314.6</ele>
        <time>2020-06-05T15:10:31Z</time>
      </trkpt>
      <trkpt lat="42.761696" lon="0.334950">
        <ele>2317.1</ele>
        <time>2020-06-05T15:10:40Z</time>
      </trkpt>
      <trkpt lat="42.761611" lon="0.335002">
        <ele>2319.2</ele>
        <time>2020-06-05T15:10:49Z</time>
      </trkpt>
      <trkpt lat="42.761526" lon="0.335018">
        <ele>2321.8</ele>
        <time>2020-06-05T15:10:57Z</time>
      </trkpt>
      <trkpt lat="42.761429" lon="0.335020">
        <ele>2324.2</ele>
        <time>2020-06-05T15:11:08Z</time>
      </trkpt>
      <trkpt lat="42.761337" lon="0.334997">
        <ele>2325.2</ele>
        <time>2020-06-05T15:11:17Z</time>
      </trkpt>
      <trkpt lat="42.761241" lon="0.334993">
        <ele>2326.8</ele>
        <time>2020-06-05T15:11:25Z</time>
      </trkpt>
      <trkpt lat="42.761148" lon="0.334972">
        <ele>2328.5</ele>
        <time>2020-06-05T15:11:33Z</time>
      </trkpt>
      <trkpt lat="42.761058" lon="0.334958">
        <ele>2329.3</ele>
        <time>2020-06-05T15:11:41Z</time>
      </trkpt>
      <trkpt lat="42.760957" lon="0.334948">
        <ele>2331.1</ele>
        <time>2020-06-05T15:11:50Z</time>
      </trkpt>
      <trkpt lat="42.760863" lon="0.334951">
        <ele>2333.8</ele>
        <time>2020-06-05T15:11:59Z</time>
      </trkpt>
      <trkpt lat="42.760768" lon="0.334933">
        <ele>2337.3</ele>
        <time>2020-06-05T15:12:11Z</time>
      </trkpt>
      <trkpt lat="42.760676" lon="0.334933">
        <ele>2340.0</ele>
        <time>2020-06-05T15:12:22Z</time>
      </trkpt>
      <trkpt lat="42.760599" lon="0.334967">
        <ele>2342.0</ele>
        <time>2020-06-05T15:12:33Z</time>
      </trkpt>
      <trkpt lat="42.760515" lon="0.334984">
        <ele>2343.9</ele>
        <time>2020-06-05T15:12:44Z</time>
      </trkpt>
      <trkpt lat="42.760424" lon="0.335000">
        <ele>2343.9</ele>
        <time>2020-06-05T15:12:54Z</time>
      </trkpt>
      <trkpt lat="42.760347" lon="0.335080">
        <ele>2343.9</ele>
        <time>2020-06-05T15:13:04Z</time>
      </trkpt>
      <trkpt lat="42.760282" lon="0.335177">
        <ele>2344.0</ele>
        <time>2020-06-05T15:13:27Z</time>
      </trkpt>
      <trkpt lat="42.760225" lon="0.335276">
        <ele>2344.0</ele>
        <time>2020-06-05T15:13:38Z</time>
      </trkpt>
      <trkpt lat="42.760150" lon="0.335354">
        <ele>2344.9</ele>
        <time>2020-06-05T15:13:46Z</time>
      </trkpt>
      <trkpt lat="42.760069" lon="0.335420">
        <ele>2344.9</ele>
        <time>2020-06-05T15:13:55Z</time>
      </trkpt>
      <trkpt lat="42.759984" lon="0.335486">
        <ele>2346.6</ele>
        <time>2020-06-05T15:14:05Z</time>
      </trkpt>
      <trkpt lat="42.759896" lon="0.335521">
        <ele>2348.4</ele>
        <time>2020-06-05T15:14:16Z</time>
      </trkpt>
      <trkpt lat="42.759727" lon="0.335508">
        <ele>2354.0</ele>
      </trkpt>
      <trkpt lat="42.759596" lon="0.335557">
        <ele>2354.3</ele>
      </trkpt>
      <trkpt lat="42.759472" lon="0.335628">
        <ele>2354.7</ele>
      </trkpt>
      <trkpt lat="42.759373" lon="0.335731">
        <ele>2355.0</ele>
      </trkpt>
      <trkpt lat="42.759302" lon="0.335846">
        <ele>2355.5</ele>
      </trkpt>
      <trkpt lat="42.759226" lon="0.335918">
        <ele>2356.4</ele>
      </trkpt>
      <trkpt lat="42.759158" lon="0.336002">
        <ele>2357.9</ele>
      </trkpt>
      <trkpt lat="42.759096" lon="0.336100">
        <ele>2359.8</ele>
      </trkpt>
      <trkpt lat="42.758985" lon="0.336220">
        <ele>2361.9</ele>
      </trkpt>
      <trkpt lat="42.758929" lon="0.336247">
        <ele>2362.1</ele>
      </trkpt>
      <trkpt lat="42.758828" lon="0.336260">
        <ele>2361.9</ele>
      </trkpt>
      <trkpt lat="42.758727" lon="0.336349">
        <ele>2362.8</ele>
      </trkpt>
      <trkpt lat="42.758661" lon="0.336358">
        <ele>2362.5</ele>
      </trkpt>
      <trkpt lat="42.758455" lon="0.336385">
        <ele>2361.5</ele>
      </trkpt>
      <trkpt lat="42.758321" lon="0.336354">
        <ele>2360.4</ele>
      </trkpt>
      <trkpt lat="42.758174" lon="0.336389">
        <ele>2360.3</ele>
      </trkpt>
      <trkpt lat="42.758024" lon="0.336367">
        <ele>2359.9</ele>
      </trkpt>
      <trkpt lat="42.757789" lon="0.336387">
        <ele>2359.5</ele>
      </trkpt>
      <trkpt lat="42.757565" lon="0.336542">
        <ele>2360.2</ele>
      </trkpt>
      <trkpt lat="42.757427" lon="0.336603">
        <ele>2360.2</ele>
      </trkpt>
      <trkpt lat="42.757253" lon="0.336697">
        <ele>2360.6</ele>
      </trkpt>
    </trkseg>
  </trk>
</gpx>

